<?xml version="1.0" encoding="UTF-8" standalone="no" ?>
<gpx xmlns="http://www.topografix.com/GPX/1/1" xmlns:xsi="http://www.w3.org/2001/XMLSchema-instance" xsi:schemaLocation="http://www.topografix.com/GPX/1/1 http://www.topografix.com/GPX/1/1/gpx.xsd" version="1.1" creator="VisuGPX - https://www.visugpx.com">
  <metadata>
    <name>sortie cyclos du 15/04/2011</name>
    <desc><![CDATA[Sortie cyclos avec vent du nord assez fort]]></desc>
  </metadata>
  <trk>
    <name><![CDATA[ACTIVE LOG]]></name>
    <trkseg>
      <trkpt lat="47.07422" lon="5.49517">
        <ele>182.307129</ele>
        <time>2011-04-15T11:44:28Z</time>
      </trkpt>
      <trkpt lat="47.07422" lon="5.49517">
        <ele>186.152466</ele>
        <time>2011-04-15T11:44:36Z</time>
      </trkpt>
      <trkpt lat="47.07422" lon="5.49517">
        <ele>185.671753</ele>
        <time>2011-04-15T11:44:37Z</time>
      </trkpt>
      <trkpt lat="47.07422" lon="5.49517">
        <ele>189.516968</ele>
        <time>2011-04-15T11:44:44Z</time>
      </trkpt>
      <trkpt lat="47.07422" lon="5.49517">
        <ele>192.881714</ele>
        <time>2011-04-15T11:44:56Z</time>
      </trkpt>
      <trkpt lat="47.07422" lon="5.49517">
        <ele>195.765625</ele>
        <time>2011-04-15T11:45:10Z</time>
      </trkpt>
      <trkpt lat="47.07422" lon="5.49517">
        <ele>198.649536</ele>
        <time>2011-04-15T11:45:31Z</time>
      </trkpt>
      <trkpt lat="47.07424" lon="5.49517">
        <ele>199.61084</ele>
        <time>2011-04-15T11:46:21Z</time>
      </trkpt>
      <trkpt lat="47.07438" lon="5.49485">
        <ele>198.168945</ele>
        <time>2011-04-15T11:46:34Z</time>
      </trkpt>
      <trkpt lat="47.07453" lon="5.4946">
        <ele>197.688232</ele>
        <time>2011-04-15T11:46:45Z</time>
      </trkpt>
      <trkpt lat="47.07486" lon="5.49473">
        <ele>198.168945</ele>
        <time>2011-04-15T11:46:57Z</time>
      </trkpt>
      <trkpt lat="47.07529" lon="5.49502">
        <ele>201.533569</ele>
        <time>2011-04-15T11:47:13Z</time>
      </trkpt>
      <trkpt lat="47.07589" lon="5.49549">
        <ele>199.61084</ele>
        <time>2011-04-15T11:47:32Z</time>
      </trkpt>
      <trkpt lat="47.07597" lon="5.49558">
        <ele>199.130127</ele>
        <time>2011-04-15T11:47:34Z</time>
      </trkpt>
      <trkpt lat="47.07599" lon="5.49592">
        <ele>198.168945</ele>
        <time>2011-04-15T11:47:39Z</time>
      </trkpt>
      <trkpt lat="47.0757" lon="5.49708">
        <ele>200.091675</ele>
        <time>2011-04-15T11:48:01Z</time>
      </trkpt>
      <trkpt lat="47.07553" lon="5.49811">
        <ele>201.533569</ele>
        <time>2011-04-15T11:48:22Z</time>
      </trkpt>
      <trkpt lat="47.07542" lon="5.49847">
        <ele>202.494873</ele>
        <time>2011-04-15T11:48:32Z</time>
      </trkpt>
      <trkpt lat="47.07541" lon="5.49864">
        <ele>202.975464</ele>
        <time>2011-04-15T11:48:36Z</time>
      </trkpt>
      <trkpt lat="47.0754" lon="5.49925">
        <ele>204.41748</ele>
        <time>2011-04-15T11:48:49Z</time>
      </trkpt>
      <trkpt lat="47.07532" lon="5.50008">
        <ele>206.820679</ele>
        <time>2011-04-15T11:49:06Z</time>
      </trkpt>
      <trkpt lat="47.07529" lon="5.50066">
        <ele>210.185425</ele>
        <time>2011-04-15T11:49:19Z</time>
      </trkpt>
      <trkpt lat="47.07535" lon="5.50128">
        <ele>213.069336</ele>
        <time>2011-04-15T11:49:33Z</time>
      </trkpt>
      <trkpt lat="47.0754" lon="5.50188">
        <ele>214.991943</ele>
        <time>2011-04-15T11:49:52Z</time>
      </trkpt>
      <trkpt lat="47.07549" lon="5.50216">
        <ele>215.472656</ele>
        <time>2011-04-15T11:50:17Z</time>
      </trkpt>
      <trkpt lat="47.07577" lon="5.50299">
        <ele>218.83728</ele>
        <time>2011-04-15T11:50:36Z</time>
      </trkpt>
      <trkpt lat="47.07592" lon="5.50346">
        <ele>220.279175</ele>
        <time>2011-04-15T11:50:47Z</time>
      </trkpt>
      <trkpt lat="47.07638" lon="5.50487">
        <ele>223.163208</ele>
        <time>2011-04-15T11:51:16Z</time>
      </trkpt>
      <trkpt lat="47.07683" lon="5.50596">
        <ele>223.163208</ele>
        <time>2011-04-15T11:51:37Z</time>
      </trkpt>
      <trkpt lat="47.07725" lon="5.50693">
        <ele>224.605225</ele>
        <time>2011-04-15T11:51:58Z</time>
      </trkpt>
      <trkpt lat="47.07776" lon="5.50802">
        <ele>226.527832</ele>
        <time>2011-04-15T11:52:20Z</time>
      </trkpt>
      <trkpt lat="47.07814" lon="5.50885">
        <ele>225.566528</ele>
        <time>2011-04-15T11:52:38Z</time>
      </trkpt>
      <trkpt lat="47.07781" lon="5.50924">
        <ele>224.605225</ele>
        <time>2011-04-15T11:52:49Z</time>
      </trkpt>
      <trkpt lat="47.07742" lon="5.50973">
        <ele>225.085938</ele>
        <time>2011-04-15T11:52:59Z</time>
      </trkpt>
      <trkpt lat="47.07732" lon="5.50997">
        <ele>225.085938</ele>
        <time>2011-04-15T11:53:03Z</time>
      </trkpt>
      <trkpt lat="47.07731" lon="5.51033">
        <ele>225.085938</ele>
        <time>2011-04-15T11:53:08Z</time>
      </trkpt>
      <trkpt lat="47.07748" lon="5.51179">
        <ele>227.008545</ele>
        <time>2011-04-15T11:53:29Z</time>
      </trkpt>
      <trkpt lat="47.07739" lon="5.51295">
        <ele>229.411743</ele>
        <time>2011-04-15T11:53:47Z</time>
      </trkpt>
      <trkpt lat="47.07701" lon="5.51485">
        <ele>229.892334</ele>
        <time>2011-04-15T11:54:15Z</time>
      </trkpt>
      <trkpt lat="47.07674" lon="5.51596">
        <ele>228.450439</ele>
        <time>2011-04-15T11:54:31Z</time>
      </trkpt>
      <trkpt lat="47.0763" lon="5.51731">
        <ele>227.008545</ele>
        <time>2011-04-15T11:54:48Z</time>
      </trkpt>
      <trkpt lat="47.07591" lon="5.51892">
        <ele>225.566528</ele>
        <time>2011-04-15T11:55:09Z</time>
      </trkpt>
      <trkpt lat="47.07559" lon="5.52036">
        <ele>224.605225</ele>
        <time>2011-04-15T11:55:25Z</time>
      </trkpt>
      <trkpt lat="47.07554" lon="5.52063">
        <ele>224.124512</ele>
        <time>2011-04-15T11:55:28Z</time>
      </trkpt>
      <trkpt lat="47.07541" lon="5.5212">
        <ele>223.163208</ele>
        <time>2011-04-15T11:55:34Z</time>
      </trkpt>
      <trkpt lat="47.07533" lon="5.52145">
        <ele>223.163208</ele>
        <time>2011-04-15T11:55:37Z</time>
      </trkpt>
      <trkpt lat="47.07521" lon="5.52197">
        <ele>223.163208</ele>
        <time>2011-04-15T11:55:43Z</time>
      </trkpt>
      <trkpt lat="47.07493" lon="5.52323">
        <ele>223.643799</ele>
        <time>2011-04-15T11:55:57Z</time>
      </trkpt>
      <trkpt lat="47.07488" lon="5.5234">
        <ele>223.163208</ele>
        <time>2011-04-15T11:55:59Z</time>
      </trkpt>
      <trkpt lat="47.07481" lon="5.52364">
        <ele>223.643799</ele>
        <time>2011-04-15T11:56:02Z</time>
      </trkpt>
      <trkpt lat="47.07468" lon="5.5241">
        <ele>223.643799</ele>
        <time>2011-04-15T11:56:08Z</time>
      </trkpt>
      <trkpt lat="47.0742" lon="5.52541">
        <ele>224.124512</ele>
        <time>2011-04-15T11:56:27Z</time>
      </trkpt>
      <trkpt lat="47.074" lon="5.52589">
        <ele>221.721191</ele>
        <time>2011-04-15T11:56:33Z</time>
      </trkpt>
      <trkpt lat="47.07379" lon="5.52622">
        <ele>220.759888</ele>
        <time>2011-04-15T11:56:37Z</time>
      </trkpt>
      <trkpt lat="47.07373" lon="5.52679">
        <ele>220.759888</ele>
        <time>2011-04-15T11:56:42Z</time>
      </trkpt>
      <trkpt lat="47.07382" lon="5.52727">
        <ele>220.279175</ele>
        <time>2011-04-15T11:56:47Z</time>
      </trkpt>
      <trkpt lat="47.07379" lon="5.52771">
        <ele>221.240601</ele>
        <time>2011-04-15T11:56:53Z</time>
      </trkpt>
      <trkpt lat="47.07376" lon="5.52784">
        <ele>222.201782</ele>
        <time>2011-04-15T11:56:55Z</time>
      </trkpt>
      <trkpt lat="47.07372" lon="5.52796">
        <ele>222.682495</ele>
        <time>2011-04-15T11:56:57Z</time>
      </trkpt>
      <trkpt lat="47.07356" lon="5.52846">
        <ele>224.605225</ele>
        <time>2011-04-15T11:57:05Z</time>
      </trkpt>
      <trkpt lat="47.07332" lon="5.52904">
        <ele>226.527832</ele>
        <time>2011-04-15T11:57:15Z</time>
      </trkpt>
      <trkpt lat="47.07302" lon="5.52986">
        <ele>227.969727</ele>
        <time>2011-04-15T11:57:28Z</time>
      </trkpt>
      <trkpt lat="47.07266" lon="5.53104">
        <ele>230.85376</ele>
        <time>2011-04-15T11:57:45Z</time>
      </trkpt>
      <trkpt lat="47.07252" lon="5.53144">
        <ele>231.334351</ele>
        <time>2011-04-15T11:57:51Z</time>
      </trkpt>
      <trkpt lat="47.07232" lon="5.532">
        <ele>231.814941</ele>
        <time>2011-04-15T11:57:59Z</time>
      </trkpt>
      <trkpt lat="47.07196" lon="5.5329">
        <ele>231.334351</ele>
        <time>2011-04-15T11:58:12Z</time>
      </trkpt>
      <trkpt lat="47.07187" lon="5.5331">
        <ele>231.814941</ele>
        <time>2011-04-15T11:58:15Z</time>
      </trkpt>
      <trkpt lat="47.0712" lon="5.53477">
        <ele>232.295776</ele>
        <time>2011-04-15T11:58:38Z</time>
      </trkpt>
      <trkpt lat="47.0711" lon="5.53499">
        <ele>232.776489</ele>
        <time>2011-04-15T11:58:41Z</time>
      </trkpt>
      <trkpt lat="47.07043" lon="5.53663">
        <ele>232.295776</ele>
        <time>2011-04-15T11:59:03Z</time>
      </trkpt>
      <trkpt lat="47.06972" lon="5.53789">
        <ele>229.892334</ele>
        <time>2011-04-15T11:59:21Z</time>
      </trkpt>
      <trkpt lat="47.06932" lon="5.53841">
        <ele>230.373047</ele>
        <time>2011-04-15T11:59:29Z</time>
      </trkpt>
      <trkpt lat="47.06917" lon="5.53856">
        <ele>229.892334</ele>
        <time>2011-04-15T11:59:32Z</time>
      </trkpt>
      <trkpt lat="47.06792" lon="5.53933">
        <ele>230.85376</ele>
        <time>2011-04-15T11:59:55Z</time>
      </trkpt>
      <trkpt lat="47.06745" lon="5.53965">
        <ele>228.931152</ele>
        <time>2011-04-15T12:00:04Z</time>
      </trkpt>
      <trkpt lat="47.06679" lon="5.54014">
        <ele>226.047119</ele>
        <time>2011-04-15T12:00:15Z</time>
      </trkpt>
      <trkpt lat="47.06631" lon="5.54046">
        <ele>225.566528</ele>
        <time>2011-04-15T12:00:23Z</time>
      </trkpt>
      <trkpt lat="47.06614" lon="5.54056">
        <ele>226.527832</ele>
        <time>2011-04-15T12:00:26Z</time>
      </trkpt>
      <trkpt lat="47.06558" lon="5.54093">
        <ele>228.931152</ele>
        <time>2011-04-15T12:00:38Z</time>
      </trkpt>
      <trkpt lat="47.06536" lon="5.54108">
        <ele>230.85376</ele>
        <time>2011-04-15T12:00:43Z</time>
      </trkpt>
      <trkpt lat="47.06489" lon="5.5414">
        <ele>234.218384</ele>
        <time>2011-04-15T12:00:55Z</time>
      </trkpt>
      <trkpt lat="47.0645" lon="5.54169">
        <ele>237.582886</ele>
        <time>2011-04-15T12:01:07Z</time>
      </trkpt>
      <trkpt lat="47.06402" lon="5.54202">
        <ele>240.467041</ele>
        <time>2011-04-15T12:01:21Z</time>
      </trkpt>
      <trkpt lat="47.06387" lon="5.54215">
        <ele>240.467041</ele>
        <time>2011-04-15T12:01:25Z</time>
      </trkpt>
      <trkpt lat="47.06315" lon="5.54251">
        <ele>244.312256</ele>
        <time>2011-04-15T12:01:42Z</time>
      </trkpt>
      <trkpt lat="47.06311" lon="5.54253">
        <ele>244.312256</ele>
        <time>2011-04-15T12:01:43Z</time>
      </trkpt>
      <trkpt lat="47.06291" lon="5.54271">
        <ele>244.792847</ele>
        <time>2011-04-15T12:01:49Z</time>
      </trkpt>
      <trkpt lat="47.06236" lon="5.54305">
        <ele>246.234863</ele>
        <time>2011-04-15T12:02:03Z</time>
      </trkpt>
      <trkpt lat="47.06226" lon="5.54308">
        <ele>246.234863</ele>
        <time>2011-04-15T12:02:05Z</time>
      </trkpt>
      <trkpt lat="47.06176" lon="5.5434">
        <ele>248.157593</ele>
        <time>2011-04-15T12:02:17Z</time>
      </trkpt>
      <trkpt lat="47.06152" lon="5.54361">
        <ele>248.638184</ele>
        <time>2011-04-15T12:02:24Z</time>
      </trkpt>
      <trkpt lat="47.06131" lon="5.54376">
        <ele>249.118774</ele>
        <time>2011-04-15T12:02:29Z</time>
      </trkpt>
      <trkpt lat="47.06067" lon="5.54413">
        <ele>250.0802</ele>
        <time>2011-04-15T12:02:45Z</time>
      </trkpt>
      <trkpt lat="47.06" lon="5.54456">
        <ele>249.599487</ele>
        <time>2011-04-15T12:03:02Z</time>
      </trkpt>
      <trkpt lat="47.05926" lon="5.54498">
        <ele>246.715454</ele>
        <time>2011-04-15T12:03:16Z</time>
      </trkpt>
      <trkpt lat="47.05858" lon="5.54537">
        <ele>243.35083</ele>
        <time>2011-04-15T12:03:26Z</time>
      </trkpt>
      <trkpt lat="47.0581" lon="5.54565">
        <ele>240.947632</ele>
        <time>2011-04-15T12:03:32Z</time>
      </trkpt>
      <trkpt lat="47.05724" lon="5.54619">
        <ele>238.544312</ele>
        <time>2011-04-15T12:03:44Z</time>
      </trkpt>
      <trkpt lat="47.05642" lon="5.54676">
        <ele>236.621704</ele>
        <time>2011-04-15T12:03:57Z</time>
      </trkpt>
      <trkpt lat="47.0556" lon="5.54723">
        <ele>233.737671</ele>
        <time>2011-04-15T12:04:09Z</time>
      </trkpt>
      <trkpt lat="47.05501" lon="5.54766">
        <ele>231.814941</ele>
        <time>2011-04-15T12:04:19Z</time>
      </trkpt>
      <trkpt lat="47.0543" lon="5.54804">
        <ele>228.450439</ele>
        <time>2011-04-15T12:04:28Z</time>
      </trkpt>
      <trkpt lat="47.05423" lon="5.54809">
        <ele>228.450439</ele>
        <time>2011-04-15T12:04:29Z</time>
      </trkpt>
      <trkpt lat="47.05409" lon="5.5482">
        <ele>227.008545</ele>
        <time>2011-04-15T12:04:31Z</time>
      </trkpt>
      <trkpt lat="47.05332" lon="5.54875">
        <ele>225.566528</ele>
        <time>2011-04-15T12:04:43Z</time>
      </trkpt>
      <trkpt lat="47.05312" lon="5.54881">
        <ele>226.527832</ele>
        <time>2011-04-15T12:04:46Z</time>
      </trkpt>
      <trkpt lat="47.05305" lon="5.54908">
        <ele>226.047119</ele>
        <time>2011-04-15T12:04:50Z</time>
      </trkpt>
      <trkpt lat="47.05313" lon="5.54944">
        <ele>225.085938</ele>
        <time>2011-04-15T12:04:54Z</time>
      </trkpt>
      <trkpt lat="47.05341" lon="5.55076">
        <ele>222.682495</ele>
        <time>2011-04-15T12:05:07Z</time>
      </trkpt>
      <trkpt lat="47.05349" lon="5.55116">
        <ele>224.124512</ele>
        <time>2011-04-15T12:05:12Z</time>
      </trkpt>
      <trkpt lat="47.05363" lon="5.5518">
        <ele>227.489136</ele>
        <time>2011-04-15T12:05:22Z</time>
      </trkpt>
      <trkpt lat="47.05367" lon="5.55197">
        <ele>228.931152</ele>
        <time>2011-04-15T12:05:25Z</time>
      </trkpt>
      <trkpt lat="47.0538" lon="5.55242">
        <ele>229.892334</ele>
        <time>2011-04-15T12:05:33Z</time>
      </trkpt>
      <trkpt lat="47.05399" lon="5.5533">
        <ele>233.25708</ele>
        <time>2011-04-15T12:05:49Z</time>
      </trkpt>
      <trkpt lat="47.0542" lon="5.55429">
        <ele>236.140991</ele>
        <time>2011-04-15T12:06:08Z</time>
      </trkpt>
      <trkpt lat="47.05439" lon="5.55519">
        <ele>239.024902</ele>
        <time>2011-04-15T12:06:24Z</time>
      </trkpt>
      <trkpt lat="47.05467" lon="5.55643">
        <ele>241.908936</ele>
        <time>2011-04-15T12:06:45Z</time>
      </trkpt>
      <trkpt lat="47.05469" lon="5.55649">
        <ele>242.389648</ele>
        <time>2011-04-15T12:06:46Z</time>
      </trkpt>
      <trkpt lat="47.05473" lon="5.55666">
        <ele>242.389648</ele>
        <time>2011-04-15T12:06:49Z</time>
      </trkpt>
      <trkpt lat="47.05495" lon="5.55767">
        <ele>242.870239</ele>
        <time>2011-04-15T12:07:06Z</time>
      </trkpt>
      <trkpt lat="47.0553" lon="5.55916">
        <ele>244.792847</ele>
        <time>2011-04-15T12:07:32Z</time>
      </trkpt>
      <trkpt lat="47.05561" lon="5.56055">
        <ele>242.870239</ele>
        <time>2011-04-15T12:07:53Z</time>
      </trkpt>
      <trkpt lat="47.05578" lon="5.56134">
        <ele>239.986206</ele>
        <time>2011-04-15T12:08:01Z</time>
      </trkpt>
      <trkpt lat="47.05587" lon="5.56169">
        <ele>238.063599</ele>
        <time>2011-04-15T12:08:04Z</time>
      </trkpt>
      <trkpt lat="47.05605" lon="5.56248">
        <ele>234.218384</ele>
        <time>2011-04-15T12:08:10Z</time>
      </trkpt>
      <trkpt lat="47.05607" lon="5.56262">
        <ele>233.737671</ele>
        <time>2011-04-15T12:08:11Z</time>
      </trkpt>
      <trkpt lat="47.05625" lon="5.56342">
        <ele>230.373047</ele>
        <time>2011-04-15T12:08:17Z</time>
      </trkpt>
      <trkpt lat="47.0564" lon="5.56411">
        <ele>226.527832</ele>
        <time>2011-04-15T12:08:22Z</time>
      </trkpt>
      <trkpt lat="47.05662" lon="5.56512">
        <ele>227.969727</ele>
        <time>2011-04-15T12:08:32Z</time>
      </trkpt>
      <trkpt lat="47.05677" lon="5.56581">
        <ele>231.334351</ele>
        <time>2011-04-15T12:08:44Z</time>
      </trkpt>
      <trkpt lat="47.057" lon="5.56683">
        <ele>235.179688</ele>
        <time>2011-04-15T12:09:03Z</time>
      </trkpt>
      <trkpt lat="47.05729" lon="5.56807">
        <ele>237.102295</ele>
        <time>2011-04-15T12:09:24Z</time>
      </trkpt>
      <trkpt lat="47.05742" lon="5.56861">
        <ele>238.063599</ele>
        <time>2011-04-15T12:09:33Z</time>
      </trkpt>
      <trkpt lat="47.05773" lon="5.56996">
        <ele>241.428223</ele>
        <time>2011-04-15T12:09:53Z</time>
      </trkpt>
      <trkpt lat="47.05818" lon="5.57196">
        <ele>239.024902</ele>
        <time>2011-04-15T12:10:19Z</time>
      </trkpt>
      <trkpt lat="47.05859" lon="5.5739">
        <ele>236.621704</ele>
        <time>2011-04-15T12:10:39Z</time>
      </trkpt>
      <trkpt lat="47.05866" lon="5.57417">
        <ele>237.582886</ele>
        <time>2011-04-15T12:10:42Z</time>
      </trkpt>
      <trkpt lat="47.05873" lon="5.57439">
        <ele>236.621704</ele>
        <time>2011-04-15T12:10:45Z</time>
      </trkpt>
      <trkpt lat="47.05892" lon="5.57521">
        <ele>237.582886</ele>
        <time>2011-04-15T12:10:56Z</time>
      </trkpt>
      <trkpt lat="47.05897" lon="5.57542">
        <ele>238.544312</ele>
        <time>2011-04-15T12:10:59Z</time>
      </trkpt>
      <trkpt lat="47.05901" lon="5.57556">
        <ele>239.505493</ele>
        <time>2011-04-15T12:11:01Z</time>
      </trkpt>
      <trkpt lat="47.05921" lon="5.57657">
        <ele>243.35083</ele>
        <time>2011-04-15T12:11:15Z</time>
      </trkpt>
      <trkpt lat="47.05953" lon="5.578">
        <ele>244.792847</ele>
        <time>2011-04-15T12:11:35Z</time>
      </trkpt>
      <trkpt lat="47.05991" lon="5.57978">
        <ele>245.273438</ele>
        <time>2011-04-15T12:12:00Z</time>
      </trkpt>
      <trkpt lat="47.0603" lon="5.58147">
        <ele>244.792847</ele>
        <time>2011-04-15T12:12:23Z</time>
      </trkpt>
      <trkpt lat="47.06053" lon="5.58251">
        <ele>243.831543</ele>
        <time>2011-04-15T12:12:37Z</time>
      </trkpt>
      <trkpt lat="47.06077" lon="5.58361">
        <ele>241.908936</ele>
        <time>2011-04-15T12:12:52Z</time>
      </trkpt>
      <trkpt lat="47.06062" lon="5.58404">
        <ele>240.947632</ele>
        <time>2011-04-15T12:13:00Z</time>
      </trkpt>
      <trkpt lat="47.05991" lon="5.58447">
        <ele>240.467041</ele>
        <time>2011-04-15T12:13:17Z</time>
      </trkpt>
      <trkpt lat="47.05912" lon="5.58492">
        <ele>239.986206</ele>
        <time>2011-04-15T12:13:32Z</time>
      </trkpt>
      <trkpt lat="47.05832" lon="5.5854">
        <ele>239.024902</ele>
        <time>2011-04-15T12:13:46Z</time>
      </trkpt>
      <trkpt lat="47.05743" lon="5.58589">
        <ele>238.063599</ele>
        <time>2011-04-15T12:14:00Z</time>
      </trkpt>
      <trkpt lat="47.05681" lon="5.58627">
        <ele>236.621704</ele>
        <time>2011-04-15T12:14:11Z</time>
      </trkpt>
      <trkpt lat="47.05606" lon="5.5867">
        <ele>233.737671</ele>
        <time>2011-04-15T12:14:23Z</time>
      </trkpt>
      <trkpt lat="47.05451" lon="5.58741">
        <ele>232.295776</ele>
        <time>2011-04-15T12:14:42Z</time>
      </trkpt>
      <trkpt lat="47.05405" lon="5.58764">
        <ele>228.931152</ele>
        <time>2011-04-15T12:14:49Z</time>
      </trkpt>
      <trkpt lat="47.05399" lon="5.58768">
        <ele>228.931152</ele>
        <time>2011-04-15T12:14:50Z</time>
      </trkpt>
      <trkpt lat="47.05308" lon="5.58819">
        <ele>227.969727</ele>
        <time>2011-04-15T12:15:05Z</time>
      </trkpt>
      <trkpt lat="47.05273" lon="5.58839">
        <ele>224.605225</ele>
        <time>2011-04-15T12:15:10Z</time>
      </trkpt>
      <trkpt lat="47.05259" lon="5.58848">
        <ele>223.643799</ele>
        <time>2011-04-15T12:15:12Z</time>
      </trkpt>
      <trkpt lat="47.05229" lon="5.58865">
        <ele>220.279175</ele>
        <time>2011-04-15T12:15:17Z</time>
      </trkpt>
      <trkpt lat="47.0522" lon="5.58901">
        <ele>219.798584</ele>
        <time>2011-04-15T12:15:23Z</time>
      </trkpt>
      <trkpt lat="47.05228" lon="5.58931">
        <ele>219.798584</ele>
        <time>2011-04-15T12:15:27Z</time>
      </trkpt>
      <trkpt lat="47.05253" lon="5.59063">
        <ele>219.317993</ele>
        <time>2011-04-15T12:15:43Z</time>
      </trkpt>
      <trkpt lat="47.05254" lon="5.59071">
        <ele>219.317993</ele>
        <time>2011-04-15T12:15:44Z</time>
      </trkpt>
      <trkpt lat="47.05269" lon="5.59155">
        <ele>221.240601</ele>
        <time>2011-04-15T12:15:54Z</time>
      </trkpt>
      <trkpt lat="47.05276" lon="5.59243">
        <ele>222.201782</ele>
        <time>2011-04-15T12:16:05Z</time>
      </trkpt>
      <trkpt lat="47.05277" lon="5.5928">
        <ele>223.163208</ele>
        <time>2011-04-15T12:16:10Z</time>
      </trkpt>
      <trkpt lat="47.05271" lon="5.59323">
        <ele>222.682495</ele>
        <time>2011-04-15T12:16:16Z</time>
      </trkpt>
      <trkpt lat="47.05247" lon="5.59392">
        <ele>223.643799</ele>
        <time>2011-04-15T12:16:26Z</time>
      </trkpt>
      <trkpt lat="47.05213" lon="5.59499">
        <ele>223.163208</ele>
        <time>2011-04-15T12:16:40Z</time>
      </trkpt>
      <trkpt lat="47.05165" lon="5.59676">
        <ele>221.240601</ele>
        <time>2011-04-15T12:17:01Z</time>
      </trkpt>
      <trkpt lat="47.05153" lon="5.59724">
        <ele>220.279175</ele>
        <time>2011-04-15T12:17:06Z</time>
      </trkpt>
      <trkpt lat="47.05113" lon="5.59792">
        <ele>220.759888</ele>
        <time>2011-04-15T12:17:15Z</time>
      </trkpt>
      <trkpt lat="47.05037" lon="5.59921">
        <ele>224.124512</ele>
        <time>2011-04-15T12:17:35Z</time>
      </trkpt>
      <trkpt lat="47.04979" lon="5.60043">
        <ele>224.605225</ele>
        <time>2011-04-15T12:17:53Z</time>
      </trkpt>
      <trkpt lat="47.0494" lon="5.60131">
        <ele>224.605225</ele>
        <time>2011-04-15T12:18:07Z</time>
      </trkpt>
      <trkpt lat="47.04923" lon="5.60203">
        <ele>225.085938</ele>
        <time>2011-04-15T12:18:16Z</time>
      </trkpt>
      <trkpt lat="47.04912" lon="5.60265">
        <ele>224.124512</ele>
        <time>2011-04-15T12:18:24Z</time>
      </trkpt>
      <trkpt lat="47.04907" lon="5.60306">
        <ele>224.124512</ele>
        <time>2011-04-15T12:18:29Z</time>
      </trkpt>
      <trkpt lat="47.04908" lon="5.60342">
        <ele>224.605225</ele>
        <time>2011-04-15T12:18:33Z</time>
      </trkpt>
      <trkpt lat="47.0492" lon="5.60512">
        <ele>223.163208</ele>
        <time>2011-04-15T12:18:52Z</time>
      </trkpt>
      <trkpt lat="47.04913" lon="5.60692">
        <ele>224.605225</ele>
        <time>2011-04-15T12:19:12Z</time>
      </trkpt>
      <trkpt lat="47.04874" lon="5.60828">
        <ele>223.643799</ele>
        <time>2011-04-15T12:19:28Z</time>
      </trkpt>
      <trkpt lat="47.04881" lon="5.60883">
        <ele>223.163208</ele>
        <time>2011-04-15T12:19:35Z</time>
      </trkpt>
      <trkpt lat="47.04906" lon="5.60906">
        <ele>223.163208</ele>
        <time>2011-04-15T12:19:40Z</time>
      </trkpt>
      <trkpt lat="47.04917" lon="5.60955">
        <ele>225.566528</ele>
        <time>2011-04-15T12:19:46Z</time>
      </trkpt>
      <trkpt lat="47.04917" lon="5.60964">
        <ele>225.566528</ele>
        <time>2011-04-15T12:19:47Z</time>
      </trkpt>
      <trkpt lat="47.04906" lon="5.61165">
        <ele>226.527832</ele>
        <time>2011-04-15T12:20:09Z</time>
      </trkpt>
      <trkpt lat="47.04911" lon="5.61243">
        <ele>227.489136</ele>
        <time>2011-04-15T12:20:18Z</time>
      </trkpt>
      <trkpt lat="47.04893" lon="5.61374">
        <ele>228.450439</ele>
        <time>2011-04-15T12:20:34Z</time>
      </trkpt>
      <trkpt lat="47.04857" lon="5.61554">
        <ele>228.931152</ele>
        <time>2011-04-15T12:20:56Z</time>
      </trkpt>
      <trkpt lat="47.04834" lon="5.6164">
        <ele>229.892334</ele>
        <time>2011-04-15T12:21:07Z</time>
      </trkpt>
      <trkpt lat="47.04827" lon="5.61667">
        <ele>228.450439</ele>
        <time>2011-04-15T12:21:10Z</time>
      </trkpt>
      <trkpt lat="47.04816" lon="5.61725">
        <ele>227.008545</ele>
        <time>2011-04-15T12:21:16Z</time>
      </trkpt>
      <trkpt lat="47.04809" lon="5.61742">
        <ele>226.047119</ele>
        <time>2011-04-15T12:21:18Z</time>
      </trkpt>
      <trkpt lat="47.04791" lon="5.61772">
        <ele>226.047119</ele>
        <time>2011-04-15T12:21:22Z</time>
      </trkpt>
      <trkpt lat="47.0478" lon="5.61829">
        <ele>226.047119</ele>
        <time>2011-04-15T12:21:29Z</time>
      </trkpt>
      <trkpt lat="47.04793" lon="5.61976">
        <ele>224.124512</ele>
        <time>2011-04-15T12:21:47Z</time>
      </trkpt>
      <trkpt lat="47.04787" lon="5.62095">
        <ele>225.566528</ele>
        <time>2011-04-15T12:22:03Z</time>
      </trkpt>
      <trkpt lat="47.04796" lon="5.62166">
        <ele>225.566528</ele>
        <time>2011-04-15T12:22:12Z</time>
      </trkpt>
      <trkpt lat="47.04787" lon="5.62208">
        <ele>226.047119</ele>
        <time>2011-04-15T12:22:17Z</time>
      </trkpt>
      <trkpt lat="47.04755" lon="5.6234">
        <ele>227.489136</ele>
        <time>2011-04-15T12:22:34Z</time>
      </trkpt>
      <trkpt lat="47.0472" lon="5.62515">
        <ele>227.008545</ele>
        <time>2011-04-15T12:22:55Z</time>
      </trkpt>
      <trkpt lat="47.04713" lon="5.62613">
        <ele>227.008545</ele>
        <time>2011-04-15T12:23:07Z</time>
      </trkpt>
      <trkpt lat="47.04703" lon="5.62647">
        <ele>226.527832</ele>
        <time>2011-04-15T12:23:11Z</time>
      </trkpt>
      <trkpt lat="47.04699" lon="5.62689">
        <ele>227.008545</ele>
        <time>2011-04-15T12:23:16Z</time>
      </trkpt>
      <trkpt lat="47.04716" lon="5.62786">
        <ele>227.008545</ele>
        <time>2011-04-15T12:23:29Z</time>
      </trkpt>
      <trkpt lat="47.04694" lon="5.62836">
        <ele>226.047119</ele>
        <time>2011-04-15T12:23:37Z</time>
      </trkpt>
      <trkpt lat="47.04575" lon="5.62895">
        <ele>226.047119</ele>
        <time>2011-04-15T12:23:59Z</time>
      </trkpt>
      <trkpt lat="47.04536" lon="5.6294">
        <ele>226.047119</ele>
        <time>2011-04-15T12:24:07Z</time>
      </trkpt>
      <trkpt lat="47.04509" lon="5.62953">
        <ele>225.085938</ele>
        <time>2011-04-15T12:24:11Z</time>
      </trkpt>
      <trkpt lat="47.04424" lon="5.62977">
        <ele>227.008545</ele>
        <time>2011-04-15T12:24:25Z</time>
      </trkpt>
      <trkpt lat="47.04365" lon="5.62964">
        <ele>227.008545</ele>
        <time>2011-04-15T12:24:35Z</time>
      </trkpt>
      <trkpt lat="47.04332" lon="5.62976">
        <ele>227.489136</ele>
        <time>2011-04-15T12:24:41Z</time>
      </trkpt>
      <trkpt lat="47.04322" lon="5.62987">
        <ele>228.931152</ele>
        <time>2011-04-15T12:24:43Z</time>
      </trkpt>
      <trkpt lat="47.04285" lon="5.6303">
        <ele>232.295776</ele>
        <time>2011-04-15T12:24:52Z</time>
      </trkpt>
      <trkpt lat="47.0424" lon="5.63073">
        <ele>235.179688</ele>
        <time>2011-04-15T12:25:06Z</time>
      </trkpt>
      <trkpt lat="47.04213" lon="5.63107">
        <ele>237.582886</ele>
        <time>2011-04-15T12:25:18Z</time>
      </trkpt>
      <trkpt lat="47.04212" lon="5.63111">
        <ele>237.582886</ele>
        <time>2011-04-15T12:25:19Z</time>
      </trkpt>
      <trkpt lat="47.042" lon="5.63172">
        <ele>240.467041</ele>
        <time>2011-04-15T12:25:34Z</time>
      </trkpt>
      <trkpt lat="47.04242" lon="5.63249">
        <ele>243.831543</ele>
        <time>2011-04-15T12:25:52Z</time>
      </trkpt>
      <trkpt lat="47.04301" lon="5.63383">
        <ele>244.312256</ele>
        <time>2011-04-15T12:26:16Z</time>
      </trkpt>
      <trkpt lat="47.04327" lon="5.63541">
        <ele>246.234863</ele>
        <time>2011-04-15T12:26:38Z</time>
      </trkpt>
      <trkpt lat="47.04333" lon="5.63587">
        <ele>246.234863</ele>
        <time>2011-04-15T12:26:44Z</time>
      </trkpt>
      <trkpt lat="47.04344" lon="5.63647">
        <ele>250.0802</ele>
        <time>2011-04-15T12:26:52Z</time>
      </trkpt>
      <trkpt lat="47.04346" lon="5.63662">
        <ele>247.196045</ele>
        <time>2011-04-15T12:26:54Z</time>
      </trkpt>
      <trkpt lat="47.04348" lon="5.63669">
        <ele>247.196045</ele>
        <time>2011-04-15T12:26:55Z</time>
      </trkpt>
      <trkpt lat="47.04374" lon="5.63761">
        <ele>250.560791</ele>
        <time>2011-04-15T12:27:08Z</time>
      </trkpt>
      <trkpt lat="47.04376" lon="5.63768">
        <ele>250.560791</ele>
        <time>2011-04-15T12:27:09Z</time>
      </trkpt>
      <trkpt lat="47.0438" lon="5.63783">
        <ele>249.599487</ele>
        <time>2011-04-15T12:27:11Z</time>
      </trkpt>
      <trkpt lat="47.04439" lon="5.63936">
        <ele>248.638184</ele>
        <time>2011-04-15T12:27:33Z</time>
      </trkpt>
      <trkpt lat="47.04499" lon="5.64039">
        <ele>249.599487</ele>
        <time>2011-04-15T12:27:51Z</time>
      </trkpt>
      <trkpt lat="47.04533" lon="5.64043">
        <ele>248.638184</ele>
        <time>2011-04-15T12:28:00Z</time>
      </trkpt>
      <trkpt lat="47.04615" lon="5.63942">
        <ele>246.715454</ele>
        <time>2011-04-15T12:28:19Z</time>
      </trkpt>
      <trkpt lat="47.04665" lon="5.63893">
        <ele>243.831543</ele>
        <time>2011-04-15T12:28:28Z</time>
      </trkpt>
      <trkpt lat="47.04672" lon="5.63888">
        <ele>243.831543</ele>
        <time>2011-04-15T12:28:29Z</time>
      </trkpt>
      <trkpt lat="47.04731" lon="5.63876">
        <ele>239.986206</ele>
        <time>2011-04-15T12:28:36Z</time>
      </trkpt>
      <trkpt lat="47.04739" lon="5.63873">
        <ele>239.986206</ele>
        <time>2011-04-15T12:28:37Z</time>
      </trkpt>
      <trkpt lat="47.04788" lon="5.63843">
        <ele>237.102295</ele>
        <time>2011-04-15T12:28:43Z</time>
      </trkpt>
      <trkpt lat="47.04796" lon="5.63839">
        <ele>236.621704</ele>
        <time>2011-04-15T12:28:44Z</time>
      </trkpt>
      <trkpt lat="47.04838" lon="5.63828">
        <ele>235.179688</ele>
        <time>2011-04-15T12:28:49Z</time>
      </trkpt>
      <trkpt lat="47.04922" lon="5.63759">
        <ele>231.334351</ele>
        <time>2011-04-15T12:29:01Z</time>
      </trkpt>
      <trkpt lat="47.05013" lon="5.63677">
        <ele>229.892334</ele>
        <time>2011-04-15T12:29:17Z</time>
      </trkpt>
      <trkpt lat="47.05056" lon="5.63635">
        <ele>229.411743</ele>
        <time>2011-04-15T12:29:25Z</time>
      </trkpt>
      <trkpt lat="47.05085" lon="5.63593">
        <ele>229.892334</ele>
        <time>2011-04-15T12:29:32Z</time>
      </trkpt>
      <trkpt lat="47.05109" lon="5.63592">
        <ele>230.85376</ele>
        <time>2011-04-15T12:29:37Z</time>
      </trkpt>
      <trkpt lat="47.05112" lon="5.63597">
        <ele>230.85376</ele>
        <time>2011-04-15T12:29:38Z</time>
      </trkpt>
      <trkpt lat="47.05157" lon="5.63646">
        <ele>231.334351</ele>
        <time>2011-04-15T12:29:48Z</time>
      </trkpt>
      <trkpt lat="47.05172" lon="5.63669">
        <ele>231.814941</ele>
        <time>2011-04-15T12:29:52Z</time>
      </trkpt>
      <trkpt lat="47.05202" lon="5.63771">
        <ele>231.814941</ele>
        <time>2011-04-15T12:30:06Z</time>
      </trkpt>
      <trkpt lat="47.05221" lon="5.63812">
        <ele>232.295776</ele>
        <time>2011-04-15T12:30:12Z</time>
      </trkpt>
      <trkpt lat="47.05276" lon="5.63854">
        <ele>234.699097</ele>
        <time>2011-04-15T12:30:25Z</time>
      </trkpt>
      <trkpt lat="47.05297" lon="5.63866">
        <ele>237.102295</ele>
        <time>2011-04-15T12:30:31Z</time>
      </trkpt>
      <trkpt lat="47.0535" lon="5.63927">
        <ele>237.582886</ele>
        <time>2011-04-15T12:30:46Z</time>
      </trkpt>
      <trkpt lat="47.05357" lon="5.63936">
        <ele>238.063599</ele>
        <time>2011-04-15T12:30:48Z</time>
      </trkpt>
      <trkpt lat="47.05389" lon="5.63944">
        <ele>238.544312</ele>
        <time>2011-04-15T12:30:55Z</time>
      </trkpt>
      <trkpt lat="47.05422" lon="5.63928">
        <ele>241.908936</ele>
        <time>2011-04-15T12:31:04Z</time>
      </trkpt>
      <trkpt lat="47.05466" lon="5.63905">
        <ele>244.792847</ele>
        <time>2011-04-15T12:31:16Z</time>
      </trkpt>
      <trkpt lat="47.05511" lon="5.63879">
        <ele>246.234863</ele>
        <time>2011-04-15T12:31:28Z</time>
      </trkpt>
      <trkpt lat="47.0557" lon="5.6385">
        <ele>248.157593</ele>
        <time>2011-04-15T12:31:43Z</time>
      </trkpt>
      <trkpt lat="47.05618" lon="5.63823">
        <ele>250.0802</ele>
        <time>2011-04-15T12:31:55Z</time>
      </trkpt>
      <trkpt lat="47.05696" lon="5.63785">
        <ele>249.599487</ele>
        <time>2011-04-15T12:32:15Z</time>
      </trkpt>
      <trkpt lat="47.05754" lon="5.63754">
        <ele>248.638184</ele>
        <time>2011-04-15T12:32:28Z</time>
      </trkpt>
      <trkpt lat="47.05874" lon="5.63695">
        <ele>246.715454</ele>
        <time>2011-04-15T12:32:48Z</time>
      </trkpt>
      <trkpt lat="47.06012" lon="5.63625">
        <ele>248.157593</ele>
        <time>2011-04-15T12:33:12Z</time>
      </trkpt>
      <trkpt lat="47.06113" lon="5.63571">
        <ele>250.0802</ele>
        <time>2011-04-15T12:33:31Z</time>
      </trkpt>
      <trkpt lat="47.06237" lon="5.6351">
        <ele>252.483398</ele>
        <time>2011-04-15T12:33:54Z</time>
      </trkpt>
      <trkpt lat="47.06357" lon="5.63449">
        <ele>253.925415</ele>
        <time>2011-04-15T12:34:15Z</time>
      </trkpt>
      <trkpt lat="47.06481" lon="5.63385">
        <ele>253.925415</ele>
        <time>2011-04-15T12:34:38Z</time>
      </trkpt>
      <trkpt lat="47.06542" lon="5.63355">
        <ele>252.483398</ele>
        <time>2011-04-15T12:34:52Z</time>
      </trkpt>
      <trkpt lat="47.06617" lon="5.63315">
        <ele>252.963989</ele>
        <time>2011-04-15T12:35:08Z</time>
      </trkpt>
      <trkpt lat="47.06678" lon="5.63282">
        <ele>253.444702</ele>
        <time>2011-04-15T12:35:21Z</time>
      </trkpt>
      <trkpt lat="47.0673" lon="5.63258">
        <ele>252.963989</ele>
        <time>2011-04-15T12:35:30Z</time>
      </trkpt>
      <trkpt lat="47.06746" lon="5.63248">
        <ele>252.963989</ele>
        <time>2011-04-15T12:35:33Z</time>
      </trkpt>
      <trkpt lat="47.06817" lon="5.63214">
        <ele>251.522095</ele>
        <time>2011-04-15T12:35:46Z</time>
      </trkpt>
      <trkpt lat="47.06887" lon="5.6318">
        <ele>251.041382</ele>
        <time>2011-04-15T12:35:59Z</time>
      </trkpt>
      <trkpt lat="47.0699" lon="5.63127">
        <ele>250.560791</ele>
        <time>2011-04-15T12:36:19Z</time>
      </trkpt>
      <trkpt lat="47.07021" lon="5.63109">
        <ele>251.522095</ele>
        <time>2011-04-15T12:36:25Z</time>
      </trkpt>
      <trkpt lat="47.07078" lon="5.6308">
        <ele>251.041382</ele>
        <time>2011-04-15T12:36:38Z</time>
      </trkpt>
      <trkpt lat="47.07123" lon="5.63062">
        <ele>251.041382</ele>
        <time>2011-04-15T12:36:52Z</time>
      </trkpt>
      <trkpt lat="47.07136" lon="5.63092">
        <ele>252.002808</ele>
        <time>2011-04-15T12:37:02Z</time>
      </trkpt>
      <trkpt lat="47.07156" lon="5.63177">
        <ele>252.002808</ele>
        <time>2011-04-15T12:37:18Z</time>
      </trkpt>
      <trkpt lat="47.07194" lon="5.6334">
        <ele>255.36731</ele>
        <time>2011-04-15T12:37:43Z</time>
      </trkpt>
      <trkpt lat="47.07219" lon="5.63457">
        <ele>252.002808</ele>
        <time>2011-04-15T12:37:59Z</time>
      </trkpt>
      <trkpt lat="47.07228" lon="5.63498">
        <ele>250.0802</ele>
        <time>2011-04-15T12:38:04Z</time>
      </trkpt>
      <trkpt lat="47.07266" lon="5.63668">
        <ele>251.522095</ele>
        <time>2011-04-15T12:38:25Z</time>
      </trkpt>
      <trkpt lat="47.07314" lon="5.63882">
        <ele>251.522095</ele>
        <time>2011-04-15T12:38:51Z</time>
      </trkpt>
      <trkpt lat="47.07345" lon="5.64016">
        <ele>251.041382</ele>
        <time>2011-04-15T12:39:07Z</time>
      </trkpt>
      <trkpt lat="47.07374" lon="5.64143">
        <ele>247.676758</ele>
        <time>2011-04-15T12:39:20Z</time>
      </trkpt>
      <trkpt lat="47.07398" lon="5.64251">
        <ele>244.792847</ele>
        <time>2011-04-15T12:39:30Z</time>
      </trkpt>
      <trkpt lat="47.074" lon="5.64262">
        <ele>244.792847</ele>
        <time>2011-04-15T12:39:31Z</time>
      </trkpt>
      <trkpt lat="47.07432" lon="5.64403">
        <ele>241.428223</ele>
        <time>2011-04-15T12:39:44Z</time>
      </trkpt>
      <trkpt lat="47.07449" lon="5.64481">
        <ele>243.831543</ele>
        <time>2011-04-15T12:39:53Z</time>
      </trkpt>
      <trkpt lat="47.07451" lon="5.64494">
        <ele>245.273438</ele>
        <time>2011-04-15T12:39:55Z</time>
      </trkpt>
      <trkpt lat="47.07476" lon="5.64601">
        <ele>248.638184</ele>
        <time>2011-04-15T12:40:11Z</time>
      </trkpt>
      <trkpt lat="47.07477" lon="5.64609">
        <ele>248.157593</ele>
        <time>2011-04-15T12:40:12Z</time>
      </trkpt>
      <trkpt lat="47.07512" lon="5.64766">
        <ele>249.118774</ele>
        <time>2011-04-15T12:40:34Z</time>
      </trkpt>
      <trkpt lat="47.07553" lon="5.64953">
        <ele>248.157593</ele>
        <time>2011-04-15T12:40:57Z</time>
      </trkpt>
      <trkpt lat="47.07593" lon="5.65127">
        <ele>245.273438</ele>
        <time>2011-04-15T12:41:15Z</time>
      </trkpt>
      <trkpt lat="47.0763" lon="5.65293">
        <ele>245.75415</ele>
        <time>2011-04-15T12:41:32Z</time>
      </trkpt>
      <trkpt lat="47.0766" lon="5.65428">
        <ele>249.118774</ele>
        <time>2011-04-15T12:41:50Z</time>
      </trkpt>
      <trkpt lat="47.07676" lon="5.65504">
        <ele>252.002808</ele>
        <time>2011-04-15T12:42:01Z</time>
      </trkpt>
      <trkpt lat="47.07712" lon="5.65671">
        <ele>253.925415</ele>
        <time>2011-04-15T12:42:24Z</time>
      </trkpt>
      <trkpt lat="47.0775" lon="5.65841">
        <ele>255.848022</ele>
        <time>2011-04-15T12:42:47Z</time>
      </trkpt>
      <trkpt lat="47.07805" lon="5.6609">
        <ele>257.770752</ele>
        <time>2011-04-15T12:43:20Z</time>
      </trkpt>
      <trkpt lat="47.07846" lon="5.66271">
        <ele>253.925415</ele>
        <time>2011-04-15T12:43:41Z</time>
      </trkpt>
      <trkpt lat="47.07863" lon="5.66349">
        <ele>253.925415</ele>
        <time>2011-04-15T12:43:50Z</time>
      </trkpt>
      <trkpt lat="47.07895" lon="5.66489">
        <ele>254.406006</ele>
        <time>2011-04-15T12:44:07Z</time>
      </trkpt>
      <trkpt lat="47.0794" lon="5.66692">
        <ele>254.406006</ele>
        <time>2011-04-15T12:44:33Z</time>
      </trkpt>
      <trkpt lat="47.07971" lon="5.66826">
        <ele>251.522095</ele>
        <time>2011-04-15T12:44:48Z</time>
      </trkpt>
      <trkpt lat="47.07973" lon="5.66836">
        <ele>251.041382</ele>
        <time>2011-04-15T12:44:49Z</time>
      </trkpt>
      <trkpt lat="47.07994" lon="5.66922">
        <ele>247.676758</ele>
        <time>2011-04-15T12:44:57Z</time>
      </trkpt>
      <trkpt lat="47.07997" lon="5.66934">
        <ele>247.676758</ele>
        <time>2011-04-15T12:44:58Z</time>
      </trkpt>
      <trkpt lat="47.08034" lon="5.67084">
        <ele>247.196045</ele>
        <time>2011-04-15T12:45:12Z</time>
      </trkpt>
      <trkpt lat="47.08036" lon="5.67091">
        <ele>247.676758</ele>
        <time>2011-04-15T12:45:13Z</time>
      </trkpt>
      <trkpt lat="47.0805" lon="5.67173">
        <ele>251.522095</ele>
        <time>2011-04-15T12:45:26Z</time>
      </trkpt>
      <trkpt lat="47.08077" lon="5.67289">
        <ele>253.925415</ele>
        <time>2011-04-15T12:45:45Z</time>
      </trkpt>
      <trkpt lat="47.08123" lon="5.67491">
        <ele>256.809326</ele>
        <time>2011-04-15T12:46:13Z</time>
      </trkpt>
      <trkpt lat="47.08174" lon="5.67728">
        <ele>257.290039</ele>
        <time>2011-04-15T12:46:42Z</time>
      </trkpt>
      <trkpt lat="47.08234" lon="5.67991">
        <ele>255.36731</ele>
        <time>2011-04-15T12:47:11Z</time>
      </trkpt>
      <trkpt lat="47.08261" lon="5.68119">
        <ele>257.770752</ele>
        <time>2011-04-15T12:47:26Z</time>
      </trkpt>
      <trkpt lat="47.08298" lon="5.68285">
        <ele>259.212646</ele>
        <time>2011-04-15T12:47:47Z</time>
      </trkpt>
      <trkpt lat="47.0833" lon="5.68423">
        <ele>256.328735</ele>
        <time>2011-04-15T12:48:01Z</time>
      </trkpt>
      <trkpt lat="47.08363" lon="5.68568">
        <ele>253.444702</ele>
        <time>2011-04-15T12:48:15Z</time>
      </trkpt>
      <trkpt lat="47.08411" lon="5.68773">
        <ele>252.002808</ele>
        <time>2011-04-15T12:48:35Z</time>
      </trkpt>
      <trkpt lat="47.08419" lon="5.68807">
        <ele>251.041382</ele>
        <time>2011-04-15T12:48:38Z</time>
      </trkpt>
      <trkpt lat="47.08458" lon="5.68979">
        <ele>253.925415</ele>
        <time>2011-04-15T12:48:54Z</time>
      </trkpt>
      <trkpt lat="47.08478" lon="5.69069">
        <ele>257.290039</ele>
        <time>2011-04-15T12:49:04Z</time>
      </trkpt>
      <trkpt lat="47.08515" lon="5.69225">
        <ele>260.654541</ele>
        <time>2011-04-15T12:49:20Z</time>
      </trkpt>
      <trkpt lat="47.08558" lon="5.69419">
        <ele>263.057861</ele>
        <time>2011-04-15T12:49:43Z</time>
      </trkpt>
      <trkpt lat="47.08604" lon="5.69622">
        <ele>263.057861</ele>
        <time>2011-04-15T12:50:08Z</time>
      </trkpt>
      <trkpt lat="47.08659" lon="5.69866">
        <ele>263.057861</ele>
        <time>2011-04-15T12:50:37Z</time>
      </trkpt>
      <trkpt lat="47.08709" lon="5.70094">
        <ele>262.096558</ele>
        <time>2011-04-15T12:51:02Z</time>
      </trkpt>
      <trkpt lat="47.08752" lon="5.70288">
        <ele>261.135254</ele>
        <time>2011-04-15T12:51:26Z</time>
      </trkpt>
      <trkpt lat="47.08754" lon="5.70296">
        <ele>261.135254</ele>
        <time>2011-04-15T12:51:27Z</time>
      </trkpt>
      <trkpt lat="47.08795" lon="5.70477">
        <ele>259.212646</ele>
        <time>2011-04-15T12:51:51Z</time>
      </trkpt>
      <trkpt lat="47.08799" lon="5.70502">
        <ele>258.731934</ele>
        <time>2011-04-15T12:52:01Z</time>
      </trkpt>
      <trkpt lat="47.08798" lon="5.70501">
        <ele>257.770752</ele>
        <time>2011-04-15T12:52:49Z</time>
      </trkpt>
      <trkpt lat="47.08798" lon="5.705">
        <ele>258.251343</ele>
        <time>2011-04-15T12:53:38Z</time>
      </trkpt>
      <trkpt lat="47.08797" lon="5.705">
        <ele>258.251343</ele>
        <time>2011-04-15T12:53:46Z</time>
      </trkpt>
      <trkpt lat="47.08772" lon="5.70514">
        <ele>258.251343</ele>
        <time>2011-04-15T12:54:00Z</time>
      </trkpt>
      <trkpt lat="47.08703" lon="5.70532">
        <ele>257.290039</ele>
        <time>2011-04-15T12:54:17Z</time>
      </trkpt>
      <trkpt lat="47.08695" lon="5.70534">
        <ele>257.290039</ele>
        <time>2011-04-15T12:54:19Z</time>
      </trkpt>
      <trkpt lat="47.08649" lon="5.7055">
        <ele>256.809326</ele>
        <time>2011-04-15T12:54:30Z</time>
      </trkpt>
      <trkpt lat="47.08559" lon="5.70568">
        <ele>255.36731</ele>
        <time>2011-04-15T12:54:46Z</time>
      </trkpt>
      <trkpt lat="47.08457" lon="5.70593">
        <ele>255.848022</ele>
        <time>2011-04-15T12:55:03Z</time>
      </trkpt>
      <trkpt lat="47.08315" lon="5.70626">
        <ele>254.886597</ele>
        <time>2011-04-15T12:55:24Z</time>
      </trkpt>
      <trkpt lat="47.08157" lon="5.70664">
        <ele>251.522095</ele>
        <time>2011-04-15T12:55:46Z</time>
      </trkpt>
      <trkpt lat="47.08062" lon="5.70687">
        <ele>248.638184</ele>
        <time>2011-04-15T12:55:57Z</time>
      </trkpt>
      <trkpt lat="47.07991" lon="5.70704">
        <ele>252.002808</ele>
        <time>2011-04-15T12:56:07Z</time>
      </trkpt>
      <trkpt lat="47.07872" lon="5.70735">
        <ele>254.886597</ele>
        <time>2011-04-15T12:56:29Z</time>
      </trkpt>
      <trkpt lat="47.07781" lon="5.70758">
        <ele>257.770752</ele>
        <time>2011-04-15T12:56:48Z</time>
      </trkpt>
      <trkpt lat="47.07654" lon="5.70789">
        <ele>259.212646</ele>
        <time>2011-04-15T12:57:13Z</time>
      </trkpt>
      <trkpt lat="47.07531" lon="5.70821">
        <ele>261.135254</ele>
        <time>2011-04-15T12:57:35Z</time>
      </trkpt>
      <trkpt lat="47.07422" lon="5.7085">
        <ele>262.096558</ele>
        <time>2011-04-15T12:57:55Z</time>
      </trkpt>
      <trkpt lat="47.0734" lon="5.70874">
        <ele>260.654541</ele>
        <time>2011-04-15T12:58:09Z</time>
      </trkpt>
      <trkpt lat="47.07211" lon="5.70903">
        <ele>257.290039</ele>
        <time>2011-04-15T12:58:28Z</time>
      </trkpt>
      <trkpt lat="47.07073" lon="5.70937">
        <ele>258.251343</ele>
        <time>2011-04-15T12:58:50Z</time>
      </trkpt>
      <trkpt lat="47.0698" lon="5.7096">
        <ele>260.17395</ele>
        <time>2011-04-15T12:59:07Z</time>
      </trkpt>
      <trkpt lat="47.06898" lon="5.7098">
        <ele>261.615967</ele>
        <time>2011-04-15T12:59:22Z</time>
      </trkpt>
      <trkpt lat="47.06784" lon="5.71009">
        <ele>261.615967</ele>
        <time>2011-04-15T12:59:42Z</time>
      </trkpt>
      <trkpt lat="47.06695" lon="5.7103">
        <ele>262.096558</ele>
        <time>2011-04-15T12:59:58Z</time>
      </trkpt>
      <trkpt lat="47.06651" lon="5.71039">
        <ele>261.615967</ele>
        <time>2011-04-15T13:00:06Z</time>
      </trkpt>
      <trkpt lat="47.06612" lon="5.71052">
        <ele>261.135254</ele>
        <time>2011-04-15T13:00:13Z</time>
      </trkpt>
      <trkpt lat="47.06524" lon="5.71071">
        <ele>260.17395</ele>
        <time>2011-04-15T13:00:27Z</time>
      </trkpt>
      <trkpt lat="47.06415" lon="5.71098">
        <ele>260.654541</ele>
        <time>2011-04-15T13:00:46Z</time>
      </trkpt>
      <trkpt lat="47.06287" lon="5.7113">
        <ele>261.135254</ele>
        <time>2011-04-15T13:01:08Z</time>
      </trkpt>
      <trkpt lat="47.06121" lon="5.7117">
        <ele>258.251343</ele>
        <time>2011-04-15T13:01:34Z</time>
      </trkpt>
      <trkpt lat="47.05958" lon="5.71211">
        <ele>256.328735</ele>
        <time>2011-04-15T13:01:58Z</time>
      </trkpt>
      <trkpt lat="47.05884" lon="5.7123">
        <ele>254.886597</ele>
        <time>2011-04-15T13:02:10Z</time>
      </trkpt>
      <trkpt lat="47.05779" lon="5.71256">
        <ele>253.925415</ele>
        <time>2011-04-15T13:02:25Z</time>
      </trkpt>
      <trkpt lat="47.05766" lon="5.7126">
        <ele>253.925415</ele>
        <time>2011-04-15T13:02:27Z</time>
      </trkpt>
      <trkpt lat="47.05657" lon="5.71288">
        <ele>255.36731</ele>
        <time>2011-04-15T13:02:45Z</time>
      </trkpt>
      <trkpt lat="47.05553" lon="5.71314">
        <ele>255.36731</ele>
        <time>2011-04-15T13:03:02Z</time>
      </trkpt>
      <trkpt lat="47.05454" lon="5.71339">
        <ele>251.522095</ele>
        <time>2011-04-15T13:03:15Z</time>
      </trkpt>
      <trkpt lat="47.05436" lon="5.71343">
        <ele>251.041382</ele>
        <time>2011-04-15T13:03:17Z</time>
      </trkpt>
      <trkpt lat="47.0537" lon="5.71359">
        <ele>247.676758</ele>
        <time>2011-04-15T13:03:24Z</time>
      </trkpt>
      <trkpt lat="47.05352" lon="5.71363">
        <ele>246.715454</ele>
        <time>2011-04-15T13:03:26Z</time>
      </trkpt>
      <trkpt lat="47.05248" lon="5.71386">
        <ele>247.196045</ele>
        <time>2011-04-15T13:03:40Z</time>
      </trkpt>
      <trkpt lat="47.0514" lon="5.71415">
        <ele>249.599487</ele>
        <time>2011-04-15T13:03:59Z</time>
      </trkpt>
      <trkpt lat="47.05059" lon="5.71435">
        <ele>252.963989</ele>
        <time>2011-04-15T13:04:15Z</time>
      </trkpt>
      <trkpt lat="47.04988" lon="5.71446">
        <ele>254.886597</ele>
        <time>2011-04-15T13:04:28Z</time>
      </trkpt>
      <trkpt lat="47.04962" lon="5.71452">
        <ele>254.886597</ele>
        <time>2011-04-15T13:04:33Z</time>
      </trkpt>
      <trkpt lat="47.04916" lon="5.71467">
        <ele>256.809326</ele>
        <time>2011-04-15T13:04:43Z</time>
      </trkpt>
      <trkpt lat="47.04908" lon="5.71472">
        <ele>257.290039</ele>
        <time>2011-04-15T13:04:45Z</time>
      </trkpt>
      <trkpt lat="47.04815" lon="5.71497">
        <ele>259.693359</ele>
        <time>2011-04-15T13:05:03Z</time>
      </trkpt>
      <trkpt lat="47.04783" lon="5.71505">
        <ele>259.212646</ele>
        <time>2011-04-15T13:05:09Z</time>
      </trkpt>
      <trkpt lat="47.04727" lon="5.71524">
        <ele>258.251343</ele>
        <time>2011-04-15T13:05:19Z</time>
      </trkpt>
      <trkpt lat="47.04702" lon="5.71535">
        <ele>257.290039</ele>
        <time>2011-04-15T13:05:24Z</time>
      </trkpt>
      <trkpt lat="47.04624" lon="5.7155">
        <ele>257.290039</ele>
        <time>2011-04-15T13:05:36Z</time>
      </trkpt>
      <trkpt lat="47.04524" lon="5.71573">
        <ele>255.848022</ele>
        <time>2011-04-15T13:05:52Z</time>
      </trkpt>
      <trkpt lat="47.04407" lon="5.71602">
        <ele>256.328735</ele>
        <time>2011-04-15T13:06:11Z</time>
      </trkpt>
      <trkpt lat="47.04332" lon="5.71624">
        <ele>257.290039</ele>
        <time>2011-04-15T13:06:26Z</time>
      </trkpt>
      <trkpt lat="47.04247" lon="5.71643">
        <ele>258.251343</ele>
        <time>2011-04-15T13:06:42Z</time>
      </trkpt>
      <trkpt lat="47.04175" lon="5.7166">
        <ele>257.770752</ele>
        <time>2011-04-15T13:06:54Z</time>
      </trkpt>
      <trkpt lat="47.04149" lon="5.7167">
        <ele>257.290039</ele>
        <time>2011-04-15T13:06:59Z</time>
      </trkpt>
      <trkpt lat="47.0412" lon="5.71677">
        <ele>257.290039</ele>
        <time>2011-04-15T13:07:04Z</time>
      </trkpt>
      <trkpt lat="47.04094" lon="5.71683">
        <ele>256.809326</ele>
        <time>2011-04-15T13:07:08Z</time>
      </trkpt>
      <trkpt lat="47.03965" lon="5.71712">
        <ele>256.328735</ele>
        <time>2011-04-15T13:07:26Z</time>
      </trkpt>
      <trkpt lat="47.03901" lon="5.71729">
        <ele>255.848022</ele>
        <time>2011-04-15T13:07:35Z</time>
      </trkpt>
      <trkpt lat="47.03805" lon="5.71778">
        <ele>253.925415</ele>
        <time>2011-04-15T13:07:48Z</time>
      </trkpt>
      <trkpt lat="47.03774" lon="5.71791">
        <ele>252.483398</ele>
        <time>2011-04-15T13:07:52Z</time>
      </trkpt>
      <trkpt lat="47.03666" lon="5.71835">
        <ele>249.118774</ele>
        <time>2011-04-15T13:08:05Z</time>
      </trkpt>
      <trkpt lat="47.03589" lon="5.71867">
        <ele>246.715454</ele>
        <time>2011-04-15T13:08:14Z</time>
      </trkpt>
      <trkpt lat="47.03555" lon="5.71873">
        <ele>246.234863</ele>
        <time>2011-04-15T13:08:18Z</time>
      </trkpt>
      <trkpt lat="47.03404" lon="5.71838">
        <ele>244.312256</ele>
        <time>2011-04-15T13:08:38Z</time>
      </trkpt>
      <trkpt lat="47.03358" lon="5.71822">
        <ele>242.389648</ele>
        <time>2011-04-15T13:08:44Z</time>
      </trkpt>
      <trkpt lat="47.0322" lon="5.71811">
        <ele>239.986206</ele>
        <time>2011-04-15T13:09:00Z</time>
      </trkpt>
      <trkpt lat="47.03202" lon="5.71813">
        <ele>239.505493</ele>
        <time>2011-04-15T13:09:02Z</time>
      </trkpt>
      <trkpt lat="47.03097" lon="5.7183">
        <ele>239.986206</ele>
        <time>2011-04-15T13:09:13Z</time>
      </trkpt>
      <trkpt lat="47.02943" lon="5.71862">
        <ele>237.582886</ele>
        <time>2011-04-15T13:09:31Z</time>
      </trkpt>
      <trkpt lat="47.02881" lon="5.71869">
        <ele>234.699097</ele>
        <time>2011-04-15T13:09:38Z</time>
      </trkpt>
      <trkpt lat="47.02766" lon="5.71886">
        <ele>233.737671</ele>
        <time>2011-04-15T13:09:52Z</time>
      </trkpt>
      <trkpt lat="47.02643" lon="5.71913">
        <ele>232.776489</ele>
        <time>2011-04-15T13:10:09Z</time>
      </trkpt>
      <trkpt lat="47.02493" lon="5.71937">
        <ele>233.25708</ele>
        <time>2011-04-15T13:10:32Z</time>
      </trkpt>
      <trkpt lat="47.02433" lon="5.71946">
        <ele>233.25708</ele>
        <time>2011-04-15T13:10:41Z</time>
      </trkpt>
      <trkpt lat="47.02333" lon="5.71934">
        <ele>233.737671</ele>
        <time>2011-04-15T13:10:55Z</time>
      </trkpt>
      <trkpt lat="47.02223" lon="5.71969">
        <ele>233.25708</ele>
        <time>2011-04-15T13:11:12Z</time>
      </trkpt>
      <trkpt lat="47.02151" lon="5.71995">
        <ele>233.737671</ele>
        <time>2011-04-15T13:11:27Z</time>
      </trkpt>
      <trkpt lat="47.0214" lon="5.71999">
        <ele>233.737671</ele>
        <time>2011-04-15T13:11:38Z</time>
      </trkpt>
      <trkpt lat="47.0214" lon="5.71999">
        <ele>232.295776</ele>
        <time>2011-04-15T13:11:48Z</time>
      </trkpt>
      <trkpt lat="47.0214" lon="5.71999">
        <ele>233.737671</ele>
        <time>2011-04-15T13:11:52Z</time>
      </trkpt>
      <trkpt lat="47.02137" lon="5.72001">
        <ele>233.737671</ele>
        <time>2011-04-15T13:12:25Z</time>
      </trkpt>
      <trkpt lat="47.02138" lon="5.7201">
        <ele>234.218384</ele>
        <time>2011-04-15T13:12:29Z</time>
      </trkpt>
      <trkpt lat="47.02151" lon="5.72062">
        <ele>234.699097</ele>
        <time>2011-04-15T13:12:44Z</time>
      </trkpt>
      <trkpt lat="47.02168" lon="5.72182">
        <ele>235.179688</ele>
        <time>2011-04-15T13:13:03Z</time>
      </trkpt>
      <trkpt lat="47.0218" lon="5.72224">
        <ele>234.699097</ele>
        <time>2011-04-15T13:13:10Z</time>
      </trkpt>
      <trkpt lat="47.02232" lon="5.72341">
        <ele>234.218384</ele>
        <time>2011-04-15T13:13:27Z</time>
      </trkpt>
      <trkpt lat="47.02274" lon="5.72444">
        <ele>233.737671</ele>
        <time>2011-04-15T13:13:41Z</time>
      </trkpt>
      <trkpt lat="47.02319" lon="5.72543">
        <ele>234.699097</ele>
        <time>2011-04-15T13:13:56Z</time>
      </trkpt>
      <trkpt lat="47.02354" lon="5.72615">
        <ele>236.621704</ele>
        <time>2011-04-15T13:14:09Z</time>
      </trkpt>
      <trkpt lat="47.024" lon="5.72736">
        <ele>237.102295</ele>
        <time>2011-04-15T13:14:28Z</time>
      </trkpt>
      <trkpt lat="47.0245" lon="5.72875">
        <ele>236.621704</ele>
        <time>2011-04-15T13:14:51Z</time>
      </trkpt>
      <trkpt lat="47.02455" lon="5.72886">
        <ele>239.505493</ele>
        <time>2011-04-15T13:14:53Z</time>
      </trkpt>
      <trkpt lat="47.02503" lon="5.72975">
        <ele>237.582886</ele>
        <time>2011-04-15T13:15:10Z</time>
      </trkpt>
      <trkpt lat="47.02552" lon="5.73094">
        <ele>238.063599</ele>
        <time>2011-04-15T13:15:30Z</time>
      </trkpt>
      <trkpt lat="47.02602" lon="5.7327">
        <ele>239.986206</ele>
        <time>2011-04-15T13:15:57Z</time>
      </trkpt>
      <trkpt lat="47.02648" lon="5.73487">
        <ele>238.063599</ele>
        <time>2011-04-15T13:16:26Z</time>
      </trkpt>
      <trkpt lat="47.02683" lon="5.7371">
        <ele>239.986206</ele>
        <time>2011-04-15T13:16:54Z</time>
      </trkpt>
      <trkpt lat="47.02685" lon="5.73725">
        <ele>240.467041</ele>
        <time>2011-04-15T13:16:56Z</time>
      </trkpt>
      <trkpt lat="47.02722" lon="5.73911">
        <ele>239.986206</ele>
        <time>2011-04-15T13:17:20Z</time>
      </trkpt>
      <trkpt lat="47.02757" lon="5.74044">
        <ele>239.986206</ele>
        <time>2011-04-15T13:17:37Z</time>
      </trkpt>
      <trkpt lat="47.02762" lon="5.74234">
        <ele>239.505493</ele>
        <time>2011-04-15T13:17:56Z</time>
      </trkpt>
      <trkpt lat="47.02758" lon="5.74271">
        <ele>240.467041</ele>
        <time>2011-04-15T13:18:00Z</time>
      </trkpt>
      <trkpt lat="47.0274" lon="5.74466">
        <ele>240.947632</ele>
        <time>2011-04-15T13:18:23Z</time>
      </trkpt>
      <trkpt lat="47.02744" lon="5.74613">
        <ele>243.35083</ele>
        <time>2011-04-15T13:18:40Z</time>
      </trkpt>
      <trkpt lat="47.02783" lon="5.74791">
        <ele>241.428223</ele>
        <time>2011-04-15T13:19:01Z</time>
      </trkpt>
      <trkpt lat="47.02795" lon="5.74958">
        <ele>245.273438</ele>
        <time>2011-04-15T13:19:20Z</time>
      </trkpt>
      <trkpt lat="47.02795" lon="5.74966">
        <ele>244.792847</ele>
        <time>2011-04-15T13:19:21Z</time>
      </trkpt>
      <trkpt lat="47.02796" lon="5.74983">
        <ele>243.35083</ele>
        <time>2011-04-15T13:19:23Z</time>
      </trkpt>
      <trkpt lat="47.02804" lon="5.75147">
        <ele>243.35083</ele>
        <time>2011-04-15T13:19:42Z</time>
      </trkpt>
      <trkpt lat="47.02822" lon="5.7538">
        <ele>241.428223</ele>
        <time>2011-04-15T13:20:07Z</time>
      </trkpt>
      <trkpt lat="47.02836" lon="5.75554">
        <ele>244.312256</ele>
        <time>2011-04-15T13:20:26Z</time>
      </trkpt>
      <trkpt lat="47.02839" lon="5.75579">
        <ele>242.870239</ele>
        <time>2011-04-15T13:20:29Z</time>
      </trkpt>
      <trkpt lat="47.02864" lon="5.75827">
        <ele>241.428223</ele>
        <time>2011-04-15T13:20:57Z</time>
      </trkpt>
      <trkpt lat="47.02878" lon="5.75993">
        <ele>240.467041</ele>
        <time>2011-04-15T13:21:16Z</time>
      </trkpt>
      <trkpt lat="47.02882" lon="5.76155">
        <ele>238.544312</ele>
        <time>2011-04-15T13:21:34Z</time>
      </trkpt>
      <trkpt lat="47.02897" lon="5.76283">
        <ele>239.024902</ele>
        <time>2011-04-15T13:21:49Z</time>
      </trkpt>
      <trkpt lat="47.02929" lon="5.76459">
        <ele>238.063599</ele>
        <time>2011-04-15T13:22:10Z</time>
      </trkpt>
      <trkpt lat="47.02933" lon="5.76637">
        <ele>239.024902</ele>
        <time>2011-04-15T13:22:31Z</time>
      </trkpt>
      <trkpt lat="47.02936" lon="5.7667">
        <ele>239.024902</ele>
        <time>2011-04-15T13:22:35Z</time>
      </trkpt>
      <trkpt lat="47.02976" lon="5.768">
        <ele>239.024902</ele>
        <time>2011-04-15T13:22:51Z</time>
      </trkpt>
      <trkpt lat="47.03" lon="5.76871">
        <ele>240.467041</ele>
        <time>2011-04-15T13:23:00Z</time>
      </trkpt>
      <trkpt lat="47.0304" lon="5.76931">
        <ele>240.467041</ele>
        <time>2011-04-15T13:23:10Z</time>
      </trkpt>
      <trkpt lat="47.03052" lon="5.76951">
        <ele>240.947632</ele>
        <time>2011-04-15T13:23:13Z</time>
      </trkpt>
      <trkpt lat="47.03083" lon="5.77036">
        <ele>239.986206</ele>
        <time>2011-04-15T13:23:23Z</time>
      </trkpt>
      <trkpt lat="47.03075" lon="5.77133">
        <ele>240.467041</ele>
        <time>2011-04-15T13:23:33Z</time>
      </trkpt>
      <trkpt lat="47.03071" lon="5.77141">
        <ele>239.986206</ele>
        <time>2011-04-15T13:23:34Z</time>
      </trkpt>
      <trkpt lat="47.03" lon="5.77239">
        <ele>239.505493</ele>
        <time>2011-04-15T13:23:49Z</time>
      </trkpt>
      <trkpt lat="47.02978" lon="5.77292">
        <ele>240.947632</ele>
        <time>2011-04-15T13:23:56Z</time>
      </trkpt>
      <trkpt lat="47.02979" lon="5.77335">
        <ele>240.947632</ele>
        <time>2011-04-15T13:24:01Z</time>
      </trkpt>
      <trkpt lat="47.03037" lon="5.77501">
        <ele>241.428223</ele>
        <time>2011-04-15T13:24:23Z</time>
      </trkpt>
      <trkpt lat="47.0307" lon="5.77598">
        <ele>241.428223</ele>
        <time>2011-04-15T13:24:40Z</time>
      </trkpt>
      <trkpt lat="47.03086" lon="5.77643">
        <ele>240.947632</ele>
        <time>2011-04-15T13:24:57Z</time>
      </trkpt>
      <trkpt lat="47.03095" lon="5.77678">
        <ele>240.947632</ele>
        <time>2011-04-15T13:25:12Z</time>
      </trkpt>
      <trkpt lat="47.03098" lon="5.77681">
        <ele>240.947632</ele>
        <time>2011-04-15T13:25:30Z</time>
      </trkpt>
      <trkpt lat="47.03098" lon="5.77681">
        <ele>240.467041</ele>
        <time>2011-04-15T13:26:07Z</time>
      </trkpt>
      <trkpt lat="47.03116" lon="5.77725">
        <ele>241.428223</ele>
        <time>2011-04-15T13:26:21Z</time>
      </trkpt>
      <trkpt lat="47.03151" lon="5.77821">
        <ele>242.389648</ele>
        <time>2011-04-15T13:26:37Z</time>
      </trkpt>
      <trkpt lat="47.03183" lon="5.77897">
        <ele>241.428223</ele>
        <time>2011-04-15T13:26:52Z</time>
      </trkpt>
      <trkpt lat="47.0323" lon="5.78026">
        <ele>241.908936</ele>
        <time>2011-04-15T13:27:12Z</time>
      </trkpt>
      <trkpt lat="47.0328" lon="5.78161">
        <ele>241.908936</ele>
        <time>2011-04-15T13:27:31Z</time>
      </trkpt>
      <trkpt lat="47.03321" lon="5.78278">
        <ele>240.467041</ele>
        <time>2011-04-15T13:27:48Z</time>
      </trkpt>
      <trkpt lat="47.03354" lon="5.78404">
        <ele>240.947632</ele>
        <time>2011-04-15T13:28:06Z</time>
      </trkpt>
      <trkpt lat="47.03371" lon="5.78458">
        <ele>241.908936</ele>
        <time>2011-04-15T13:28:17Z</time>
      </trkpt>
      <trkpt lat="47.03393" lon="5.78454">
        <ele>239.986206</ele>
        <time>2011-04-15T13:28:23Z</time>
      </trkpt>
      <trkpt lat="47.03455" lon="5.78435">
        <ele>241.428223</ele>
        <time>2011-04-15T13:28:38Z</time>
      </trkpt>
      <trkpt lat="47.03542" lon="5.78416">
        <ele>242.389648</ele>
        <time>2011-04-15T13:28:56Z</time>
      </trkpt>
      <trkpt lat="47.03664" lon="5.78382">
        <ele>243.831543</ele>
        <time>2011-04-15T13:29:20Z</time>
      </trkpt>
      <trkpt lat="47.03757" lon="5.78391">
        <ele>245.273438</ele>
        <time>2011-04-15T13:29:39Z</time>
      </trkpt>
      <trkpt lat="47.03812" lon="5.78384">
        <ele>248.638184</ele>
        <time>2011-04-15T13:29:52Z</time>
      </trkpt>
      <trkpt lat="47.03873" lon="5.7836">
        <ele>250.560791</ele>
        <time>2011-04-15T13:30:08Z</time>
      </trkpt>
      <trkpt lat="47.03934" lon="5.78293">
        <ele>251.041382</ele>
        <time>2011-04-15T13:30:25Z</time>
      </trkpt>
      <trkpt lat="47.04002" lon="5.78251">
        <ele>253.444702</ele>
        <time>2011-04-15T13:30:40Z</time>
      </trkpt>
      <trkpt lat="47.04087" lon="5.78186">
        <ele>255.848022</ele>
        <time>2011-04-15T13:31:01Z</time>
      </trkpt>
      <trkpt lat="47.04134" lon="5.781">
        <ele>256.328735</ele>
        <time>2011-04-15T13:31:17Z</time>
      </trkpt>
      <trkpt lat="47.04189" lon="5.78063">
        <ele>257.770752</ele>
        <time>2011-04-15T13:31:31Z</time>
      </trkpt>
      <trkpt lat="47.04269" lon="5.77992">
        <ele>259.693359</ele>
        <time>2011-04-15T13:31:52Z</time>
      </trkpt>
      <trkpt lat="47.04319" lon="5.77928">
        <ele>256.328735</ele>
        <time>2011-04-15T13:32:03Z</time>
      </trkpt>
      <trkpt lat="47.0439" lon="5.77811">
        <ele>255.848022</ele>
        <time>2011-04-15T13:32:18Z</time>
      </trkpt>
      <trkpt lat="47.04447" lon="5.77718">
        <ele>257.770752</ele>
        <time>2011-04-15T13:32:33Z</time>
      </trkpt>
      <trkpt lat="47.04502" lon="5.77611">
        <ele>260.17395</ele>
        <time>2011-04-15T13:32:51Z</time>
      </trkpt>
      <trkpt lat="47.04561" lon="5.77499">
        <ele>259.693359</ele>
        <time>2011-04-15T13:33:08Z</time>
      </trkpt>
      <trkpt lat="47.04592" lon="5.77418">
        <ele>256.328735</ele>
        <time>2011-04-15T13:33:16Z</time>
      </trkpt>
      <trkpt lat="47.04622" lon="5.77295">
        <ele>257.290039</ele>
        <time>2011-04-15T13:33:29Z</time>
      </trkpt>
      <trkpt lat="47.04642" lon="5.77187">
        <ele>259.212646</ele>
        <time>2011-04-15T13:33:44Z</time>
      </trkpt>
      <trkpt lat="47.0467" lon="5.77097">
        <ele>261.135254</ele>
        <time>2011-04-15T13:33:59Z</time>
      </trkpt>
      <trkpt lat="47.04723" lon="5.77002">
        <ele>263.057861</ele>
        <time>2011-04-15T13:34:17Z</time>
      </trkpt>
      <trkpt lat="47.04754" lon="5.76929">
        <ele>263.538574</ele>
        <time>2011-04-15T13:34:28Z</time>
      </trkpt>
      <trkpt lat="47.04772" lon="5.76874">
        <ele>261.615967</ele>
        <time>2011-04-15T13:34:36Z</time>
      </trkpt>
      <trkpt lat="47.04806" lon="5.76768">
        <ele>260.654541</ele>
        <time>2011-04-15T13:34:48Z</time>
      </trkpt>
      <trkpt lat="47.04825" lon="5.76737">
        <ele>259.693359</ele>
        <time>2011-04-15T13:34:52Z</time>
      </trkpt>
      <trkpt lat="47.04837" lon="5.76706">
        <ele>259.212646</ele>
        <time>2011-04-15T13:34:58Z</time>
      </trkpt>
      <trkpt lat="47.04883" lon="5.76686">
        <ele>260.654541</ele>
        <time>2011-04-15T13:35:08Z</time>
      </trkpt>
      <trkpt lat="47.04981" lon="5.76639">
        <ele>262.096558</ele>
        <time>2011-04-15T13:35:30Z</time>
      </trkpt>
      <trkpt lat="47.05103" lon="5.76579">
        <ele>261.615967</ele>
        <time>2011-04-15T13:35:56Z</time>
      </trkpt>
      <trkpt lat="47.05215" lon="5.76523">
        <ele>261.135254</ele>
        <time>2011-04-15T13:36:19Z</time>
      </trkpt>
      <trkpt lat="47.05306" lon="5.76477">
        <ele>258.251343</ele>
        <time>2011-04-15T13:36:34Z</time>
      </trkpt>
      <trkpt lat="47.05403" lon="5.76426">
        <ele>256.809326</ele>
        <time>2011-04-15T13:36:48Z</time>
      </trkpt>
      <trkpt lat="47.0545" lon="5.76405">
        <ele>260.17395</ele>
        <time>2011-04-15T13:36:57Z</time>
      </trkpt>
      <trkpt lat="47.05571" lon="5.7635">
        <ele>262.096558</ele>
        <time>2011-04-15T13:37:23Z</time>
      </trkpt>
      <trkpt lat="47.05672" lon="5.76297">
        <ele>260.17395</ele>
        <time>2011-04-15T13:37:40Z</time>
      </trkpt>
      <trkpt lat="47.05774" lon="5.76246">
        <ele>261.615967</ele>
        <time>2011-04-15T13:37:58Z</time>
      </trkpt>
      <trkpt lat="47.05899" lon="5.76182">
        <ele>264.019287</ele>
        <time>2011-04-15T13:38:24Z</time>
      </trkpt>
      <trkpt lat="47.06024" lon="5.7612">
        <ele>266.422485</ele>
        <time>2011-04-15T13:38:49Z</time>
      </trkpt>
      <trkpt lat="47.06117" lon="5.76073">
        <ele>263.057861</ele>
        <time>2011-04-15T13:39:04Z</time>
      </trkpt>
      <trkpt lat="47.06278" lon="5.75997">
        <ele>264.019287</ele>
        <time>2011-04-15T13:39:31Z</time>
      </trkpt>
      <trkpt lat="47.06392" lon="5.75939">
        <ele>263.057861</ele>
        <time>2011-04-15T13:39:49Z</time>
      </trkpt>
      <trkpt lat="47.06424" lon="5.75924">
        <ele>261.135254</ele>
        <time>2011-04-15T13:39:54Z</time>
      </trkpt>
      <trkpt lat="47.06504" lon="5.75887">
        <ele>264.019287</ele>
        <time>2011-04-15T13:40:08Z</time>
      </trkpt>
      <trkpt lat="47.06609" lon="5.75833">
        <ele>267.383911</ele>
        <time>2011-04-15T13:40:30Z</time>
      </trkpt>
      <trkpt lat="47.06699" lon="5.7579">
        <ele>268.825806</ele>
        <time>2011-04-15T13:40:48Z</time>
      </trkpt>
      <trkpt lat="47.06716" lon="5.7578">
        <ele>267.383911</ele>
        <time>2011-04-15T13:40:51Z</time>
      </trkpt>
      <trkpt lat="47.06849" lon="5.75715">
        <ele>264.980591</ele>
        <time>2011-04-15T13:41:12Z</time>
      </trkpt>
      <trkpt lat="47.06994" lon="5.75644">
        <ele>266.903198</ele>
        <time>2011-04-15T13:41:36Z</time>
      </trkpt>
      <trkpt lat="47.07121" lon="5.75581">
        <ele>268.825806</ele>
        <time>2011-04-15T13:41:59Z</time>
      </trkpt>
      <trkpt lat="47.07267" lon="5.75508">
        <ele>269.306519</ele>
        <time>2011-04-15T13:42:25Z</time>
      </trkpt>
      <trkpt lat="47.07385" lon="5.7545">
        <ele>267.864502</ele>
        <time>2011-04-15T13:42:44Z</time>
      </trkpt>
      <trkpt lat="47.07515" lon="5.75386">
        <ele>269.306519</ele>
        <time>2011-04-15T13:43:07Z</time>
      </trkpt>
      <trkpt lat="47.07631" lon="5.75326">
        <ele>268.825806</ele>
        <time>2011-04-15T13:43:26Z</time>
      </trkpt>
      <trkpt lat="47.07761" lon="5.75265">
        <ele>270.2677</ele>
        <time>2011-04-15T13:43:49Z</time>
      </trkpt>
      <trkpt lat="47.07853" lon="5.75217">
        <ele>271.229126</ele>
        <time>2011-04-15T13:44:09Z</time>
      </trkpt>
      <trkpt lat="47.07864" lon="5.75205">
        <ele>271.709717</ele>
        <time>2011-04-15T13:44:14Z</time>
      </trkpt>
      <trkpt lat="47.07881" lon="5.75203">
        <ele>271.709717</ele>
        <time>2011-04-15T13:44:19Z</time>
      </trkpt>
      <trkpt lat="47.07966" lon="5.75163">
        <ele>273.151855</ele>
        <time>2011-04-15T13:44:35Z</time>
      </trkpt>
      <trkpt lat="47.08108" lon="5.75095">
        <ele>271.709717</ele>
        <time>2011-04-15T13:45:00Z</time>
      </trkpt>
      <trkpt lat="47.08256" lon="5.75023">
        <ele>270.748413</ele>
        <time>2011-04-15T13:45:25Z</time>
      </trkpt>
      <trkpt lat="47.08393" lon="5.74958">
        <ele>270.2677</ele>
        <time>2011-04-15T13:45:44Z</time>
      </trkpt>
      <trkpt lat="47.08533" lon="5.74889">
        <ele>268.825806</ele>
        <time>2011-04-15T13:46:05Z</time>
      </trkpt>
      <trkpt lat="47.08654" lon="5.74834">
        <ele>269.787109</ele>
        <time>2011-04-15T13:46:23Z</time>
      </trkpt>
      <trkpt lat="47.08793" lon="5.74765">
        <ele>268.345093</ele>
        <time>2011-04-15T13:46:44Z</time>
      </trkpt>
      <trkpt lat="47.08933" lon="5.74699">
        <ele>267.383911</ele>
        <time>2011-04-15T13:47:04Z</time>
      </trkpt>
      <trkpt lat="47.08954" lon="5.74689">
        <ele>265.941895</ele>
        <time>2011-04-15T13:47:07Z</time>
      </trkpt>
      <trkpt lat="47.08998" lon="5.74669">
        <ele>264.019287</ele>
        <time>2011-04-15T13:47:13Z</time>
      </trkpt>
      <trkpt lat="47.09081" lon="5.74628">
        <ele>260.654541</ele>
        <time>2011-04-15T13:47:25Z</time>
      </trkpt>
      <trkpt lat="47.09153" lon="5.7459">
        <ele>261.135254</ele>
        <time>2011-04-15T13:47:39Z</time>
      </trkpt>
      <trkpt lat="47.09244" lon="5.74547">
        <ele>263.057861</ele>
        <time>2011-04-15T13:47:53Z</time>
      </trkpt>
      <trkpt lat="47.09358" lon="5.74499">
        <ele>264.980591</ele>
        <time>2011-04-15T13:48:12Z</time>
      </trkpt>
      <trkpt lat="47.09434" lon="5.74462">
        <ele>261.615967</ele>
        <time>2011-04-15T13:48:23Z</time>
      </trkpt>
      <trkpt lat="47.0955" lon="5.74406">
        <ele>259.693359</ele>
        <time>2011-04-15T13:48:39Z</time>
      </trkpt>
      <trkpt lat="47.09636" lon="5.74363">
        <ele>261.615967</ele>
        <time>2011-04-15T13:48:55Z</time>
      </trkpt>
      <trkpt lat="47.09661" lon="5.74341">
        <ele>262.096558</ele>
        <time>2011-04-15T13:49:04Z</time>
      </trkpt>
      <trkpt lat="47.09662" lon="5.74325">
        <ele>261.615967</ele>
        <time>2011-04-15T13:49:08Z</time>
      </trkpt>
      <trkpt lat="47.09643" lon="5.74245">
        <ele>259.212646</ele>
        <time>2011-04-15T13:49:19Z</time>
      </trkpt>
      <trkpt lat="47.0962" lon="5.74152">
        <ele>258.251343</ele>
        <time>2011-04-15T13:49:28Z</time>
      </trkpt>
      <trkpt lat="47.09586" lon="5.73987">
        <ele>258.731934</ele>
        <time>2011-04-15T13:49:45Z</time>
      </trkpt>
      <trkpt lat="47.0957" lon="5.7392">
        <ele>258.251343</ele>
        <time>2011-04-15T13:49:53Z</time>
      </trkpt>
      <trkpt lat="47.09549" lon="5.73828">
        <ele>256.809326</ele>
        <time>2011-04-15T13:50:10Z</time>
      </trkpt>
      <trkpt lat="47.09545" lon="5.73812">
        <ele>256.809326</ele>
        <time>2011-04-15T13:50:24Z</time>
      </trkpt>
      <trkpt lat="47.09546" lon="5.73805">
        <ele>256.328735</ele>
        <time>2011-04-15T13:50:35Z</time>
      </trkpt>
      <trkpt lat="47.09548" lon="5.73805">
        <ele>255.36731</ele>
        <time>2011-04-15T13:54:20Z</time>
      </trkpt>
      <trkpt lat="47.09548" lon="5.73805">
        <ele>259.212646</ele>
        <time>2011-04-15T13:54:21Z</time>
      </trkpt>
      <trkpt lat="47.09548" lon="5.73805">
        <ele>257.770752</ele>
        <time>2011-04-15T13:54:22Z</time>
      </trkpt>
      <trkpt lat="47.09548" lon="5.73803">
        <ele>259.212646</ele>
        <time>2011-04-15T13:57:30Z</time>
      </trkpt>
      <trkpt lat="47.0953" lon="5.73751">
        <ele>259.212646</ele>
        <time>2011-04-15T13:57:46Z</time>
      </trkpt>
      <trkpt lat="47.09503" lon="5.73631">
        <ele>260.17395</ele>
        <time>2011-04-15T13:58:06Z</time>
      </trkpt>
      <trkpt lat="47.09475" lon="5.73506">
        <ele>262.577148</ele>
        <time>2011-04-15T13:58:24Z</time>
      </trkpt>
      <trkpt lat="47.09445" lon="5.7337">
        <ele>264.980591</ele>
        <time>2011-04-15T13:58:44Z</time>
      </trkpt>
      <trkpt lat="47.09404" lon="5.73184">
        <ele>265.941895</ele>
        <time>2011-04-15T13:59:09Z</time>
      </trkpt>
      <trkpt lat="47.09382" lon="5.73092">
        <ele>263.057861</ele>
        <time>2011-04-15T13:59:18Z</time>
      </trkpt>
      <trkpt lat="47.09354" lon="5.72965">
        <ele>264.499878</ele>
        <time>2011-04-15T13:59:31Z</time>
      </trkpt>
      <trkpt lat="47.09317" lon="5.72805">
        <ele>266.422485</ele>
        <time>2011-04-15T13:59:52Z</time>
      </trkpt>
      <trkpt lat="47.09284" lon="5.72654">
        <ele>263.538574</ele>
        <time>2011-04-15T14:00:07Z</time>
      </trkpt>
      <trkpt lat="47.09281" lon="5.72641">
        <ele>263.057861</ele>
        <time>2011-04-15T14:00:08Z</time>
      </trkpt>
      <trkpt lat="47.09252" lon="5.72505">
        <ele>264.019287</ele>
        <time>2011-04-15T14:00:21Z</time>
      </trkpt>
      <trkpt lat="47.0923" lon="5.72403">
        <ele>266.903198</ele>
        <time>2011-04-15T14:00:33Z</time>
      </trkpt>
      <trkpt lat="47.09168" lon="5.72124">
        <ele>268.345093</ele>
        <time>2011-04-15T14:01:04Z</time>
      </trkpt>
      <trkpt lat="47.09119" lon="5.71908">
        <ele>266.903198</ele>
        <time>2011-04-15T14:01:24Z</time>
      </trkpt>
      <trkpt lat="47.09075" lon="5.71713">
        <ele>266.422485</ele>
        <time>2011-04-15T14:01:43Z</time>
      </trkpt>
      <trkpt lat="47.09023" lon="5.71485">
        <ele>267.864502</ele>
        <time>2011-04-15T14:02:07Z</time>
      </trkpt>
      <trkpt lat="47.08976" lon="5.71276">
        <ele>264.980591</ele>
        <time>2011-04-15T14:02:26Z</time>
      </trkpt>
      <trkpt lat="47.08952" lon="5.71172">
        <ele>262.096558</ele>
        <time>2011-04-15T14:02:34Z</time>
      </trkpt>
      <trkpt lat="47.08919" lon="5.71029">
        <ele>263.538574</ele>
        <time>2011-04-15T14:02:46Z</time>
      </trkpt>
      <trkpt lat="47.08868" lon="5.70802">
        <ele>266.422485</ele>
        <time>2011-04-15T14:03:06Z</time>
      </trkpt>
      <trkpt lat="47.08824" lon="5.7061">
        <ele>265.941895</ele>
        <time>2011-04-15T14:03:25Z</time>
      </trkpt>
      <trkpt lat="47.08809" lon="5.70534">
        <ele>264.980591</ele>
        <time>2011-04-15T14:03:33Z</time>
      </trkpt>
      <trkpt lat="47.08797" lon="5.70477">
        <ele>265.461304</ele>
        <time>2011-04-15T14:03:43Z</time>
      </trkpt>
      <trkpt lat="47.08794" lon="5.70465">
        <ele>265.461304</ele>
        <time>2011-04-15T14:03:45Z</time>
      </trkpt>
      <trkpt lat="47.08788" lon="5.70437">
        <ele>265.461304</ele>
        <time>2011-04-15T14:03:50Z</time>
      </trkpt>
      <trkpt lat="47.08752" lon="5.70289">
        <ele>267.383911</ele>
        <time>2011-04-15T14:04:12Z</time>
      </trkpt>
      <trkpt lat="47.08708" lon="5.70099">
        <ele>266.903198</ele>
        <time>2011-04-15T14:04:33Z</time>
      </trkpt>
      <trkpt lat="47.0865" lon="5.69843">
        <ele>268.825806</ele>
        <time>2011-04-15T14:05:01Z</time>
      </trkpt>
      <trkpt lat="47.08592" lon="5.69588">
        <ele>268.345093</ele>
        <time>2011-04-15T14:05:29Z</time>
      </trkpt>
      <trkpt lat="47.0852" lon="5.69268">
        <ele>266.903198</ele>
        <time>2011-04-15T14:06:01Z</time>
      </trkpt>
      <trkpt lat="47.0848" lon="5.69094">
        <ele>264.019287</ele>
        <time>2011-04-15T14:06:16Z</time>
      </trkpt>
      <trkpt lat="47.08456" lon="5.68988">
        <ele>260.17395</ele>
        <time>2011-04-15T14:06:24Z</time>
      </trkpt>
      <trkpt lat="47.08436" lon="5.689">
        <ele>257.290039</ele>
        <time>2011-04-15T14:06:30Z</time>
      </trkpt>
      <trkpt lat="47.0843" lon="5.6887">
        <ele>256.328735</ele>
        <time>2011-04-15T14:06:32Z</time>
      </trkpt>
      <trkpt lat="47.08397" lon="5.68715">
        <ele>258.731934</ele>
        <time>2011-04-15T14:06:45Z</time>
      </trkpt>
      <trkpt lat="47.08392" lon="5.68694">
        <ele>259.693359</ele>
        <time>2011-04-15T14:06:47Z</time>
      </trkpt>
      <trkpt lat="47.08348" lon="5.68474">
        <ele>260.17395</ele>
        <time>2011-04-15T14:07:07Z</time>
      </trkpt>
      <trkpt lat="47.08298" lon="5.68256">
        <ele>261.135254</ele>
        <time>2011-04-15T14:07:28Z</time>
      </trkpt>
      <trkpt lat="47.0825" lon="5.68047">
        <ele>261.135254</ele>
        <time>2011-04-15T14:07:49Z</time>
      </trkpt>
      <trkpt lat="47.08207" lon="5.67849">
        <ele>260.654541</ele>
        <time>2011-04-15T14:08:07Z</time>
      </trkpt>
      <trkpt lat="47.08149" lon="5.67589">
        <ele>262.096558</ele>
        <time>2011-04-15T14:08:33Z</time>
      </trkpt>
      <trkpt lat="47.08121" lon="5.6746">
        <ele>260.654541</ele>
        <time>2011-04-15T14:08:46Z</time>
      </trkpt>
      <trkpt lat="47.08061" lon="5.67199">
        <ele>257.290039</ele>
        <time>2011-04-15T14:09:10Z</time>
      </trkpt>
      <trkpt lat="47.08047" lon="5.6714">
        <ele>254.406006</ele>
        <time>2011-04-15T14:09:17Z</time>
      </trkpt>
      <trkpt lat="47.08043" lon="5.67101">
        <ele>251.522095</ele>
        <time>2011-04-15T14:09:28Z</time>
      </trkpt>
      <trkpt lat="47.08043" lon="5.67092">
        <ele>251.041382</ele>
        <time>2011-04-15T14:09:40Z</time>
      </trkpt>
      <trkpt lat="47.08077" lon="5.67086">
        <ele>251.522095</ele>
        <time>2011-04-15T14:09:51Z</time>
      </trkpt>
      <trkpt lat="47.08165" lon="5.6706">
        <ele>250.560791</ele>
        <time>2011-04-15T14:10:04Z</time>
      </trkpt>
      <trkpt lat="47.0831" lon="5.67015">
        <ele>249.599487</ele>
        <time>2011-04-15T14:10:26Z</time>
      </trkpt>
      <trkpt lat="47.08417" lon="5.66982">
        <ele>252.963989</ele>
        <time>2011-04-15T14:10:48Z</time>
      </trkpt>
      <trkpt lat="47.08485" lon="5.66962">
        <ele>255.848022</ele>
        <time>2011-04-15T14:11:03Z</time>
      </trkpt>
      <trkpt lat="47.08616" lon="5.66922">
        <ele>257.770752</ele>
        <time>2011-04-15T14:11:32Z</time>
      </trkpt>
      <trkpt lat="47.08668" lon="5.66906">
        <ele>258.731934</ele>
        <time>2011-04-15T14:11:44Z</time>
      </trkpt>
      <trkpt lat="47.08701" lon="5.66897">
        <ele>258.731934</ele>
        <time>2011-04-15T14:11:51Z</time>
      </trkpt>
      <trkpt lat="47.08818" lon="5.66861">
        <ele>260.654541</ele>
        <time>2011-04-15T14:12:14Z</time>
      </trkpt>
      <trkpt lat="47.0893" lon="5.66829">
        <ele>261.135254</ele>
        <time>2011-04-15T14:12:38Z</time>
      </trkpt>
      <trkpt lat="47.09038" lon="5.66795">
        <ele>262.096558</ele>
        <time>2011-04-15T14:12:58Z</time>
      </trkpt>
      <trkpt lat="47.09075" lon="5.66784">
        <ele>260.654541</ele>
        <time>2011-04-15T14:13:05Z</time>
      </trkpt>
      <trkpt lat="47.09182" lon="5.66753">
        <ele>261.615967</ele>
        <time>2011-04-15T14:13:26Z</time>
      </trkpt>
      <trkpt lat="47.09304" lon="5.66716">
        <ele>263.057861</ele>
        <time>2011-04-15T14:13:50Z</time>
      </trkpt>
      <trkpt lat="47.09416" lon="5.66681">
        <ele>265.461304</ele>
        <time>2011-04-15T14:14:11Z</time>
      </trkpt>
      <trkpt lat="47.09531" lon="5.66645">
        <ele>265.941895</ele>
        <time>2011-04-15T14:14:29Z</time>
      </trkpt>
      <trkpt lat="47.09639" lon="5.66614">
        <ele>265.941895</ele>
        <time>2011-04-15T14:14:46Z</time>
      </trkpt>
      <trkpt lat="47.0976" lon="5.66575">
        <ele>263.538574</ele>
        <time>2011-04-15T14:15:05Z</time>
      </trkpt>
      <trkpt lat="47.09824" lon="5.66555">
        <ele>261.615967</ele>
        <time>2011-04-15T14:15:14Z</time>
      </trkpt>
      <trkpt lat="47.09904" lon="5.66531">
        <ele>258.251343</ele>
        <time>2011-04-15T14:15:24Z</time>
      </trkpt>
      <trkpt lat="47.10018" lon="5.66498">
        <ele>255.36731</ele>
        <time>2011-04-15T14:15:40Z</time>
      </trkpt>
      <trkpt lat="47.1005" lon="5.6649">
        <ele>254.886597</ele>
        <time>2011-04-15T14:15:49Z</time>
      </trkpt>
      <trkpt lat="47.10055" lon="5.6649">
        <ele>254.406006</ele>
        <time>2011-04-15T14:15:52Z</time>
      </trkpt>
      <trkpt lat="47.10056" lon="5.66489">
        <ele>253.925415</ele>
        <time>2011-04-15T14:16:14Z</time>
      </trkpt>
      <trkpt lat="47.10056" lon="5.66489">
        <ele>263.538574</ele>
        <time>2011-04-15T14:16:27Z</time>
      </trkpt>
      <trkpt lat="47.10056" lon="5.66489">
        <ele>255.36731</ele>
        <time>2011-04-15T14:16:28Z</time>
      </trkpt>
      <trkpt lat="47.10056" lon="5.66489">
        <ele>254.406006</ele>
        <time>2011-04-15T14:16:30Z</time>
      </trkpt>
      <trkpt lat="47.10057" lon="5.66489">
        <ele>254.886597</ele>
        <time>2011-04-15T14:17:35Z</time>
      </trkpt>
      <trkpt lat="47.10056" lon="5.66489">
        <ele>254.886597</ele>
        <time>2011-04-15T14:18:54Z</time>
      </trkpt>
      <trkpt lat="47.10057" lon="5.66488">
        <ele>255.848022</ele>
        <time>2011-04-15T14:21:22Z</time>
      </trkpt>
      <trkpt lat="47.10094" lon="5.66471">
        <ele>257.290039</ele>
        <time>2011-04-15T14:21:34Z</time>
      </trkpt>
      <trkpt lat="47.10165" lon="5.6645">
        <ele>259.212646</ele>
        <time>2011-04-15T14:21:49Z</time>
      </trkpt>
      <trkpt lat="47.10224" lon="5.66431">
        <ele>261.615967</ele>
        <time>2011-04-15T14:22:02Z</time>
      </trkpt>
      <trkpt lat="47.10335" lon="5.66401">
        <ele>259.693359</ele>
        <time>2011-04-15T14:22:20Z</time>
      </trkpt>
      <trkpt lat="47.10443" lon="5.66368">
        <ele>260.654541</ele>
        <time>2011-04-15T14:22:37Z</time>
      </trkpt>
      <trkpt lat="47.10541" lon="5.66338">
        <ele>263.538574</ele>
        <time>2011-04-15T14:22:58Z</time>
      </trkpt>
      <trkpt lat="47.10645" lon="5.66308">
        <ele>264.499878</ele>
        <time>2011-04-15T14:23:19Z</time>
      </trkpt>
      <trkpt lat="47.10744" lon="5.6628">
        <ele>264.499878</ele>
        <time>2011-04-15T14:23:38Z</time>
      </trkpt>
      <trkpt lat="47.10876" lon="5.66239">
        <ele>264.499878</ele>
        <time>2011-04-15T14:24:02Z</time>
      </trkpt>
      <trkpt lat="47.11037" lon="5.66189">
        <ele>265.941895</ele>
        <time>2011-04-15T14:24:31Z</time>
      </trkpt>
      <trkpt lat="47.11113" lon="5.66168">
        <ele>266.422485</ele>
        <time>2011-04-15T14:24:46Z</time>
      </trkpt>
      <trkpt lat="47.11224" lon="5.66134">
        <ele>267.383911</ele>
        <time>2011-04-15T14:25:09Z</time>
      </trkpt>
      <trkpt lat="47.11311" lon="5.66106">
        <ele>266.903198</ele>
        <time>2011-04-15T14:25:28Z</time>
      </trkpt>
      <trkpt lat="47.1145" lon="5.66066">
        <ele>267.383911</ele>
        <time>2011-04-15T14:25:53Z</time>
      </trkpt>
      <trkpt lat="47.11564" lon="5.66031">
        <ele>266.903198</ele>
        <time>2011-04-15T14:26:13Z</time>
      </trkpt>
      <trkpt lat="47.11691" lon="5.65997">
        <ele>264.980591</ele>
        <time>2011-04-15T14:26:35Z</time>
      </trkpt>
      <trkpt lat="47.11838" lon="5.65949">
        <ele>264.499878</ele>
        <time>2011-04-15T14:27:00Z</time>
      </trkpt>
      <trkpt lat="47.12009" lon="5.65897">
        <ele>264.499878</ele>
        <time>2011-04-15T14:27:28Z</time>
      </trkpt>
      <trkpt lat="47.12157" lon="5.65851">
        <ele>264.980591</ele>
        <time>2011-04-15T14:27:53Z</time>
      </trkpt>
      <trkpt lat="47.12293" lon="5.65809">
        <ele>263.057861</ele>
        <time>2011-04-15T14:28:16Z</time>
      </trkpt>
      <trkpt lat="47.12363" lon="5.65788">
        <ele>261.135254</ele>
        <time>2011-04-15T14:28:27Z</time>
      </trkpt>
      <trkpt lat="47.12417" lon="5.65773">
        <ele>257.290039</ele>
        <time>2011-04-15T14:28:36Z</time>
      </trkpt>
      <trkpt lat="47.12438" lon="5.65768">
        <ele>255.36731</ele>
        <time>2011-04-15T14:28:40Z</time>
      </trkpt>
      <trkpt lat="47.12472" lon="5.65781">
        <ele>252.483398</ele>
        <time>2011-04-15T14:28:51Z</time>
      </trkpt>
      <trkpt lat="47.12477" lon="5.65784">
        <ele>252.483398</ele>
        <time>2011-04-15T14:28:54Z</time>
      </trkpt>
      <trkpt lat="47.12483" lon="5.65794">
        <ele>252.002808</ele>
        <time>2011-04-15T14:29:00Z</time>
      </trkpt>
      <trkpt lat="47.1249" lon="5.65804">
        <ele>252.002808</ele>
        <time>2011-04-15T14:29:07Z</time>
      </trkpt>
      <trkpt lat="47.12488" lon="5.65797">
        <ele>252.002808</ele>
        <time>2011-04-15T14:29:11Z</time>
      </trkpt>
      <trkpt lat="47.12481" lon="5.65789">
        <ele>252.483398</ele>
        <time>2011-04-15T14:29:14Z</time>
      </trkpt>
      <trkpt lat="47.12496" lon="5.65759">
        <ele>251.522095</ele>
        <time>2011-04-15T14:29:20Z</time>
      </trkpt>
      <trkpt lat="47.12518" lon="5.65753">
        <ele>251.522095</ele>
        <time>2011-04-15T14:29:23Z</time>
      </trkpt>
      <trkpt lat="47.1254" lon="5.65722">
        <ele>252.483398</ele>
        <time>2011-04-15T14:29:27Z</time>
      </trkpt>
      <trkpt lat="47.12551" lon="5.65697">
        <ele>253.925415</ele>
        <time>2011-04-15T14:29:30Z</time>
      </trkpt>
      <trkpt lat="47.12563" lon="5.6568">
        <ele>254.886597</ele>
        <time>2011-04-15T14:29:33Z</time>
      </trkpt>
      <trkpt lat="47.12612" lon="5.65624">
        <ele>258.731934</ele>
        <time>2011-04-15T14:29:46Z</time>
      </trkpt>
      <trkpt lat="47.1265" lon="5.65579">
        <ele>260.654541</ele>
        <time>2011-04-15T14:30:00Z</time>
      </trkpt>
      <trkpt lat="47.12702" lon="5.65565">
        <ele>260.17395</ele>
        <time>2011-04-15T14:30:16Z</time>
      </trkpt>
      <trkpt lat="47.12766" lon="5.65585">
        <ele>260.654541</ele>
        <time>2011-04-15T14:30:33Z</time>
      </trkpt>
      <trkpt lat="47.12829" lon="5.6556">
        <ele>258.731934</ele>
        <time>2011-04-15T14:30:47Z</time>
      </trkpt>
      <trkpt lat="47.12875" lon="5.65491">
        <ele>255.848022</ele>
        <time>2011-04-15T14:30:58Z</time>
      </trkpt>
      <trkpt lat="47.12904" lon="5.65437">
        <ele>252.963989</ele>
        <time>2011-04-15T14:31:04Z</time>
      </trkpt>
      <trkpt lat="47.1296" lon="5.65333">
        <ele>250.0802</ele>
        <time>2011-04-15T14:31:15Z</time>
      </trkpt>
      <trkpt lat="47.12996" lon="5.65284">
        <ele>247.196045</ele>
        <time>2011-04-15T14:31:22Z</time>
      </trkpt>
      <trkpt lat="47.13012" lon="5.65262">
        <ele>246.234863</ele>
        <time>2011-04-15T14:31:25Z</time>
      </trkpt>
      <trkpt lat="47.13025" lon="5.65221">
        <ele>243.35083</ele>
        <time>2011-04-15T14:31:29Z</time>
      </trkpt>
      <trkpt lat="47.13024" lon="5.65201">
        <ele>242.389648</ele>
        <time>2011-04-15T14:31:31Z</time>
      </trkpt>
      <trkpt lat="47.13013" lon="5.65139">
        <ele>244.312256</ele>
        <time>2011-04-15T14:31:39Z</time>
      </trkpt>
      <trkpt lat="47.13011" lon="5.65134">
        <ele>244.312256</ele>
        <time>2011-04-15T14:31:40Z</time>
      </trkpt>
      <trkpt lat="47.13005" lon="5.65113">
        <ele>245.273438</ele>
        <time>2011-04-15T14:31:44Z</time>
      </trkpt>
      <trkpt lat="47.12999" lon="5.65065">
        <ele>244.312256</ele>
        <time>2011-04-15T14:31:55Z</time>
      </trkpt>
      <trkpt lat="47.1301" lon="5.65052">
        <ele>244.312256</ele>
        <time>2011-04-15T14:31:59Z</time>
      </trkpt>
      <trkpt lat="47.13052" lon="5.65046">
        <ele>243.35083</ele>
        <time>2011-04-15T14:32:08Z</time>
      </trkpt>
      <trkpt lat="47.1313" lon="5.65044">
        <ele>239.986206</ele>
        <time>2011-04-15T14:32:24Z</time>
      </trkpt>
      <trkpt lat="47.13132" lon="5.65044">
        <ele>239.986206</ele>
        <time>2011-04-15T14:32:25Z</time>
      </trkpt>
      <trkpt lat="47.13136" lon="5.65042">
        <ele>239.505493</ele>
        <time>2011-04-15T14:32:28Z</time>
      </trkpt>
      <trkpt lat="47.13138" lon="5.65037">
        <ele>238.544312</ele>
        <time>2011-04-15T14:32:31Z</time>
      </trkpt>
      <trkpt lat="47.13156" lon="5.64995">
        <ele>236.621704</ele>
        <time>2011-04-15T14:32:43Z</time>
      </trkpt>
      <trkpt lat="47.13177" lon="5.64928">
        <ele>233.25708</ele>
        <time>2011-04-15T14:32:52Z</time>
      </trkpt>
      <trkpt lat="47.13189" lon="5.64885">
        <ele>230.373047</ele>
        <time>2011-04-15T14:32:57Z</time>
      </trkpt>
      <trkpt lat="47.13198" lon="5.64847">
        <ele>227.008545</ele>
        <time>2011-04-15T14:33:02Z</time>
      </trkpt>
      <trkpt lat="47.13203" lon="5.64821">
        <ele>225.085938</ele>
        <time>2011-04-15T14:33:05Z</time>
      </trkpt>
      <trkpt lat="47.13206" lon="5.64704">
        <ele>221.721191</ele>
        <time>2011-04-15T14:33:15Z</time>
      </trkpt>
      <trkpt lat="47.13205" lon="5.64636">
        <ele>218.83728</ele>
        <time>2011-04-15T14:33:20Z</time>
      </trkpt>
      <trkpt lat="47.1323" lon="5.64573">
        <ele>219.317993</ele>
        <time>2011-04-15T14:33:26Z</time>
      </trkpt>
      <trkpt lat="47.13281" lon="5.64529">
        <ele>219.317993</ele>
        <time>2011-04-15T14:33:35Z</time>
      </trkpt>
      <trkpt lat="47.13305" lon="5.64485">
        <ele>218.356567</ele>
        <time>2011-04-15T14:33:41Z</time>
      </trkpt>
      <trkpt lat="47.1332" lon="5.6441">
        <ele>217.875977</ele>
        <time>2011-04-15T14:33:49Z</time>
      </trkpt>
      <trkpt lat="47.13335" lon="5.64376">
        <ele>216.914673</ele>
        <time>2011-04-15T14:33:53Z</time>
      </trkpt>
      <trkpt lat="47.1336" lon="5.64342">
        <ele>216.914673</ele>
        <time>2011-04-15T14:33:58Z</time>
      </trkpt>
      <trkpt lat="47.13438" lon="5.64256">
        <ele>216.43396</ele>
        <time>2011-04-15T14:34:12Z</time>
      </trkpt>
      <trkpt lat="47.135" lon="5.64134">
        <ele>216.43396</ele>
        <time>2011-04-15T14:34:28Z</time>
      </trkpt>
      <trkpt lat="47.13541" lon="5.6401">
        <ele>216.914673</ele>
        <time>2011-04-15T14:34:43Z</time>
      </trkpt>
      <trkpt lat="47.1355" lon="5.63977">
        <ele>216.914673</ele>
        <time>2011-04-15T14:34:47Z</time>
      </trkpt>
      <trkpt lat="47.13555" lon="5.63952">
        <ele>217.395386</ele>
        <time>2011-04-15T14:34:50Z</time>
      </trkpt>
      <trkpt lat="47.13558" lon="5.63925">
        <ele>217.875977</ele>
        <time>2011-04-15T14:34:53Z</time>
      </trkpt>
      <trkpt lat="47.13544" lon="5.63827">
        <ele>218.356567</ele>
        <time>2011-04-15T14:35:05Z</time>
      </trkpt>
      <trkpt lat="47.13519" lon="5.63763">
        <ele>219.317993</ele>
        <time>2011-04-15T14:35:13Z</time>
      </trkpt>
      <trkpt lat="47.13519" lon="5.63653">
        <ele>217.395386</ele>
        <time>2011-04-15T14:35:26Z</time>
      </trkpt>
      <trkpt lat="47.13535" lon="5.63547">
        <ele>217.395386</ele>
        <time>2011-04-15T14:35:38Z</time>
      </trkpt>
      <trkpt lat="47.13573" lon="5.63413">
        <ele>217.395386</ele>
        <time>2011-04-15T14:35:53Z</time>
      </trkpt>
      <trkpt lat="47.13603" lon="5.63258">
        <ele>217.395386</ele>
        <time>2011-04-15T14:36:10Z</time>
      </trkpt>
      <trkpt lat="47.13622" lon="5.63074">
        <ele>216.914673</ele>
        <time>2011-04-15T14:36:30Z</time>
      </trkpt>
      <trkpt lat="47.13625" lon="5.63033">
        <ele>216.914673</ele>
        <time>2011-04-15T14:36:35Z</time>
      </trkpt>
      <trkpt lat="47.13634" lon="5.6294">
        <ele>215.472656</ele>
        <time>2011-04-15T14:36:45Z</time>
      </trkpt>
      <trkpt lat="47.13637" lon="5.6287">
        <ele>214.991943</ele>
        <time>2011-04-15T14:36:52Z</time>
      </trkpt>
      <trkpt lat="47.1363" lon="5.6272">
        <ele>214.51123</ele>
        <time>2011-04-15T14:37:07Z</time>
      </trkpt>
      <trkpt lat="47.13619" lon="5.62513">
        <ele>214.51123</ele>
        <time>2011-04-15T14:37:29Z</time>
      </trkpt>
      <trkpt lat="47.13605" lon="5.6236">
        <ele>214.03064</ele>
        <time>2011-04-15T14:37:45Z</time>
      </trkpt>
      <trkpt lat="47.13592" lon="5.62212">
        <ele>214.991943</ele>
        <time>2011-04-15T14:38:01Z</time>
      </trkpt>
      <trkpt lat="47.13548" lon="5.62045">
        <ele>214.991943</ele>
        <time>2011-04-15T14:38:20Z</time>
      </trkpt>
      <trkpt lat="47.13515" lon="5.61919">
        <ele>214.991943</ele>
        <time>2011-04-15T14:38:34Z</time>
      </trkpt>
      <trkpt lat="47.13444" lon="5.61791">
        <ele>214.51123</ele>
        <time>2011-04-15T14:38:51Z</time>
      </trkpt>
      <trkpt lat="47.13403" lon="5.61675">
        <ele>214.991943</ele>
        <time>2011-04-15T14:39:04Z</time>
      </trkpt>
      <trkpt lat="47.13346" lon="5.61461">
        <ele>214.51123</ele>
        <time>2011-04-15T14:39:27Z</time>
      </trkpt>
      <trkpt lat="47.1324" lon="5.61215">
        <ele>213.550049</ele>
        <time>2011-04-15T14:39:55Z</time>
      </trkpt>
      <trkpt lat="47.1318" lon="5.61091">
        <ele>212.588623</ele>
        <time>2011-04-15T14:40:10Z</time>
      </trkpt>
      <trkpt lat="47.13084" lon="5.60885">
        <ele>214.03064</ele>
        <time>2011-04-15T14:40:34Z</time>
      </trkpt>
      <trkpt lat="47.13031" lon="5.60779">
        <ele>214.51123</ele>
        <time>2011-04-15T14:40:48Z</time>
      </trkpt>
      <trkpt lat="47.1301" lon="5.6073">
        <ele>214.03064</ele>
        <time>2011-04-15T14:40:54Z</time>
      </trkpt>
      <trkpt lat="47.12933" lon="5.60556">
        <ele>212.108032</ele>
        <time>2011-04-15T14:41:15Z</time>
      </trkpt>
      <trkpt lat="47.12866" lon="5.60431">
        <ele>213.069336</ele>
        <time>2011-04-15T14:41:33Z</time>
      </trkpt>
      <trkpt lat="47.12803" lon="5.60345">
        <ele>211.627441</ele>
        <time>2011-04-15T14:41:47Z</time>
      </trkpt>
      <trkpt lat="47.12764" lon="5.60324">
        <ele>211.627441</ele>
        <time>2011-04-15T14:41:54Z</time>
      </trkpt>
      <trkpt lat="47.12737" lon="5.60328">
        <ele>212.108032</ele>
        <time>2011-04-15T14:41:59Z</time>
      </trkpt>
      <trkpt lat="47.1271" lon="5.60301">
        <ele>211.627441</ele>
        <time>2011-04-15T14:42:07Z</time>
      </trkpt>
      <trkpt lat="47.12698" lon="5.60229">
        <ele>211.627441</ele>
        <time>2011-04-15T14:42:20Z</time>
      </trkpt>
      <trkpt lat="47.12687" lon="5.6016">
        <ele>211.146729</ele>
        <time>2011-04-15T14:42:29Z</time>
      </trkpt>
      <trkpt lat="47.12683" lon="5.60133">
        <ele>210.666016</ele>
        <time>2011-04-15T14:42:32Z</time>
      </trkpt>
      <trkpt lat="47.12682" lon="5.59961">
        <ele>211.146729</ele>
        <time>2011-04-15T14:42:49Z</time>
      </trkpt>
      <trkpt lat="47.12719" lon="5.59744">
        <ele>210.666016</ele>
        <time>2011-04-15T14:43:07Z</time>
      </trkpt>
      <trkpt lat="47.12722" lon="5.5955">
        <ele>210.666016</ele>
        <time>2011-04-15T14:43:25Z</time>
      </trkpt>
      <trkpt lat="47.12721" lon="5.59324">
        <ele>210.185425</ele>
        <time>2011-04-15T14:43:45Z</time>
      </trkpt>
      <trkpt lat="47.12708" lon="5.59076">
        <ele>209.224121</ele>
        <time>2011-04-15T14:44:07Z</time>
      </trkpt>
      <trkpt lat="47.12658" lon="5.5899">
        <ele>209.704834</ele>
        <time>2011-04-15T14:44:17Z</time>
      </trkpt>
      <trkpt lat="47.12586" lon="5.58876">
        <ele>209.704834</ele>
        <time>2011-04-15T14:44:31Z</time>
      </trkpt>
      <trkpt lat="47.12563" lon="5.58757">
        <ele>209.224121</ele>
        <time>2011-04-15T14:44:43Z</time>
      </trkpt>
      <trkpt lat="47.12547" lon="5.58607">
        <ele>209.224121</ele>
        <time>2011-04-15T14:45:01Z</time>
      </trkpt>
      <trkpt lat="47.12572" lon="5.58464">
        <ele>210.185425</ele>
        <time>2011-04-15T14:45:15Z</time>
      </trkpt>
      <trkpt lat="47.12589" lon="5.58316">
        <ele>210.666016</ele>
        <time>2011-04-15T14:45:27Z</time>
      </trkpt>
      <trkpt lat="47.12558" lon="5.58107">
        <ele>214.03064</ele>
        <time>2011-04-15T14:45:42Z</time>
      </trkpt>
      <trkpt lat="47.12522" lon="5.57906">
        <ele>215.472656</ele>
        <time>2011-04-15T14:45:57Z</time>
      </trkpt>
      <trkpt lat="47.1248" lon="5.57687">
        <ele>213.550049</ele>
        <time>2011-04-15T14:46:15Z</time>
      </trkpt>
      <trkpt lat="47.12424" lon="5.57437">
        <ele>212.108032</ele>
        <time>2011-04-15T14:46:36Z</time>
      </trkpt>
      <trkpt lat="47.12411" lon="5.57374">
        <ele>210.185425</ele>
        <time>2011-04-15T14:46:41Z</time>
      </trkpt>
      <trkpt lat="47.12346" lon="5.57074">
        <ele>207.782104</ele>
        <time>2011-04-15T14:47:06Z</time>
      </trkpt>
      <trkpt lat="47.12312" lon="5.56918">
        <ele>208.262817</ele>
        <time>2011-04-15T14:47:22Z</time>
      </trkpt>
      <trkpt lat="47.12306" lon="5.56895">
        <ele>207.782104</ele>
        <time>2011-04-15T14:47:25Z</time>
      </trkpt>
      <trkpt lat="47.12303" lon="5.5674">
        <ele>208.743408</ele>
        <time>2011-04-15T14:47:42Z</time>
      </trkpt>
      <trkpt lat="47.12308" lon="5.56602">
        <ele>209.704834</ele>
        <time>2011-04-15T14:47:56Z</time>
      </trkpt>
      <trkpt lat="47.12325" lon="5.5656">
        <ele>212.108032</ele>
        <time>2011-04-15T14:48:01Z</time>
      </trkpt>
      <trkpt lat="47.12414" lon="5.5643">
        <ele>212.108032</ele>
        <time>2011-04-15T14:48:20Z</time>
      </trkpt>
      <trkpt lat="47.12441" lon="5.56391">
        <ele>210.666016</ele>
        <time>2011-04-15T14:48:26Z</time>
      </trkpt>
      <trkpt lat="47.12464" lon="5.56312">
        <ele>209.704834</ele>
        <time>2011-04-15T14:48:37Z</time>
      </trkpt>
      <trkpt lat="47.1246" lon="5.56305">
        <ele>208.262817</ele>
        <time>2011-04-15T14:48:48Z</time>
      </trkpt>
      <trkpt lat="47.1246" lon="5.56305">
        <ele>208.743408</ele>
        <time>2011-04-15T14:49:21Z</time>
      </trkpt>
      <trkpt lat="47.12422" lon="5.56285">
        <ele>207.301392</ele>
        <time>2011-04-15T14:49:33Z</time>
      </trkpt>
      <trkpt lat="47.12393" lon="5.56269">
        <ele>206.820679</ele>
        <time>2011-04-15T14:49:39Z</time>
      </trkpt>
      <trkpt lat="47.12339" lon="5.56215">
        <ele>206.340088</ele>
        <time>2011-04-15T14:49:51Z</time>
      </trkpt>
      <trkpt lat="47.12258" lon="5.56105">
        <ele>206.340088</ele>
        <time>2011-04-15T14:50:09Z</time>
      </trkpt>
      <trkpt lat="47.12136" lon="5.55936">
        <ele>205.859497</ele>
        <time>2011-04-15T14:50:32Z</time>
      </trkpt>
      <trkpt lat="47.12022" lon="5.55775">
        <ele>207.301392</ele>
        <time>2011-04-15T14:50:53Z</time>
      </trkpt>
      <trkpt lat="47.11904" lon="5.55608">
        <ele>206.340088</ele>
        <time>2011-04-15T14:51:15Z</time>
      </trkpt>
      <trkpt lat="47.11772" lon="5.55423">
        <ele>206.340088</ele>
        <time>2011-04-15T14:51:42Z</time>
      </trkpt>
      <trkpt lat="47.11662" lon="5.55267">
        <ele>206.340088</ele>
        <time>2011-04-15T14:52:05Z</time>
      </trkpt>
      <trkpt lat="47.11537" lon="5.5509">
        <ele>206.340088</ele>
        <time>2011-04-15T14:52:30Z</time>
      </trkpt>
      <trkpt lat="47.1141" lon="5.54911">
        <ele>205.859497</ele>
        <time>2011-04-15T14:52:56Z</time>
      </trkpt>
      <trkpt lat="47.11309" lon="5.54802">
        <ele>205.378784</ele>
        <time>2011-04-15T14:53:15Z</time>
      </trkpt>
      <trkpt lat="47.11165" lon="5.54745">
        <ele>204.898071</ele>
        <time>2011-04-15T14:53:36Z</time>
      </trkpt>
      <trkpt lat="47.10982" lon="5.54673">
        <ele>205.378784</ele>
        <time>2011-04-15T14:54:03Z</time>
      </trkpt>
      <trkpt lat="47.10813" lon="5.54606">
        <ele>204.898071</ele>
        <time>2011-04-15T14:54:28Z</time>
      </trkpt>
      <trkpt lat="47.10662" lon="5.54546">
        <ele>204.898071</ele>
        <time>2011-04-15T14:54:50Z</time>
      </trkpt>
      <trkpt lat="47.10534" lon="5.54495">
        <ele>204.898071</ele>
        <time>2011-04-15T14:55:09Z</time>
      </trkpt>
      <trkpt lat="47.10355" lon="5.54424">
        <ele>205.378784</ele>
        <time>2011-04-15T14:55:36Z</time>
      </trkpt>
      <trkpt lat="47.102" lon="5.54361">
        <ele>205.859497</ele>
        <time>2011-04-15T14:55:59Z</time>
      </trkpt>
      <trkpt lat="47.10039" lon="5.54284">
        <ele>204.41748</ele>
        <time>2011-04-15T14:56:23Z</time>
      </trkpt>
      <trkpt lat="47.09969" lon="5.54226">
        <ele>205.378784</ele>
        <time>2011-04-15T14:56:36Z</time>
      </trkpt>
      <trkpt lat="47.09958" lon="5.54216">
        <ele>204.898071</ele>
        <time>2011-04-15T14:56:38Z</time>
      </trkpt>
      <trkpt lat="47.09868" lon="5.54093">
        <ele>205.859497</ele>
        <time>2011-04-15T14:56:56Z</time>
      </trkpt>
      <trkpt lat="47.09791" lon="5.53909">
        <ele>204.898071</ele>
        <time>2011-04-15T14:57:16Z</time>
      </trkpt>
      <trkpt lat="47.09761" lon="5.53809">
        <ele>205.378784</ele>
        <time>2011-04-15T14:57:31Z</time>
      </trkpt>
      <trkpt lat="47.09756" lon="5.53767">
        <ele>205.859497</ele>
        <time>2011-04-15T14:57:42Z</time>
      </trkpt>
      <trkpt lat="47.09747" lon="5.53716">
        <ele>204.41748</ele>
        <time>2011-04-15T14:57:51Z</time>
      </trkpt>
      <trkpt lat="47.0972" lon="5.53582">
        <ele>203.456177</ele>
        <time>2011-04-15T14:58:07Z</time>
      </trkpt>
      <trkpt lat="47.0969" lon="5.53439">
        <ele>203.456177</ele>
        <time>2011-04-15T14:58:24Z</time>
      </trkpt>
      <trkpt lat="47.09648" lon="5.53242">
        <ele>202.975464</ele>
        <time>2011-04-15T14:58:47Z</time>
      </trkpt>
      <trkpt lat="47.09642" lon="5.53211">
        <ele>202.975464</ele>
        <time>2011-04-15T14:58:52Z</time>
      </trkpt>
      <trkpt lat="47.09632" lon="5.53191">
        <ele>202.494873</ele>
        <time>2011-04-15T14:58:56Z</time>
      </trkpt>
      <trkpt lat="47.09628" lon="5.53178">
        <ele>203.456177</ele>
        <time>2011-04-15T14:58:58Z</time>
      </trkpt>
      <trkpt lat="47.09628" lon="5.53135">
        <ele>203.456177</ele>
        <time>2011-04-15T14:59:03Z</time>
      </trkpt>
      <trkpt lat="47.09587" lon="5.52935">
        <ele>202.494873</ele>
        <time>2011-04-15T14:59:26Z</time>
      </trkpt>
      <trkpt lat="47.09551" lon="5.52767">
        <ele>202.975464</ele>
        <time>2011-04-15T14:59:46Z</time>
      </trkpt>
      <trkpt lat="47.0954" lon="5.52706">
        <ele>205.378784</ele>
        <time>2011-04-15T14:59:58Z</time>
      </trkpt>
      <trkpt lat="47.0954" lon="5.52695">
        <ele>205.859497</ele>
        <time>2011-04-15T15:00:07Z</time>
      </trkpt>
      <trkpt lat="47.0954" lon="5.52694">
        <ele>206.340088</ele>
        <time>2011-04-15T15:00:22Z</time>
      </trkpt>
      <trkpt lat="47.09537" lon="5.52691">
        <ele>206.340088</ele>
        <time>2011-04-15T15:00:26Z</time>
      </trkpt>
      <trkpt lat="47.09526" lon="5.52692">
        <ele>206.340088</ele>
        <time>2011-04-15T15:00:34Z</time>
      </trkpt>
      <trkpt lat="47.09514" lon="5.52669">
        <ele>204.41748</ele>
        <time>2011-04-15T15:00:41Z</time>
      </trkpt>
      <trkpt lat="47.09484" lon="5.52525">
        <ele>202.975464</ele>
        <time>2011-04-15T15:01:00Z</time>
      </trkpt>
      <trkpt lat="47.09452" lon="5.52372">
        <ele>202.975464</ele>
        <time>2011-04-15T15:01:20Z</time>
      </trkpt>
      <trkpt lat="47.09407" lon="5.52163">
        <ele>202.975464</ele>
        <time>2011-04-15T15:01:45Z</time>
      </trkpt>
      <trkpt lat="47.09376" lon="5.52013">
        <ele>202.975464</ele>
        <time>2011-04-15T15:02:01Z</time>
      </trkpt>
      <trkpt lat="47.09335" lon="5.51808">
        <ele>203.456177</ele>
        <time>2011-04-15T15:02:23Z</time>
      </trkpt>
      <trkpt lat="47.09299" lon="5.51629">
        <ele>202.494873</ele>
        <time>2011-04-15T15:02:42Z</time>
      </trkpt>
      <trkpt lat="47.09275" lon="5.51462">
        <ele>203.456177</ele>
        <time>2011-04-15T15:02:59Z</time>
      </trkpt>
      <trkpt lat="47.09271" lon="5.51338">
        <ele>202.975464</ele>
        <time>2011-04-15T15:03:12Z</time>
      </trkpt>
      <trkpt lat="47.09277" lon="5.51182">
        <ele>202.975464</ele>
        <time>2011-04-15T15:03:28Z</time>
      </trkpt>
      <trkpt lat="47.09284" lon="5.51034">
        <ele>202.975464</ele>
        <time>2011-04-15T15:03:43Z</time>
      </trkpt>
      <trkpt lat="47.0929" lon="5.50912">
        <ele>202.494873</ele>
        <time>2011-04-15T15:03:56Z</time>
      </trkpt>
      <trkpt lat="47.093" lon="5.50876">
        <ele>201.533569</ele>
        <time>2011-04-15T15:04:01Z</time>
      </trkpt>
      <trkpt lat="47.09295" lon="5.50842">
        <ele>201.533569</ele>
        <time>2011-04-15T15:04:07Z</time>
      </trkpt>
      <trkpt lat="47.09301" lon="5.50716">
        <ele>202.014282</ele>
        <time>2011-04-15T15:04:21Z</time>
      </trkpt>
      <trkpt lat="47.09311" lon="5.50527">
        <ele>201.533569</ele>
        <time>2011-04-15T15:04:42Z</time>
      </trkpt>
      <trkpt lat="47.09309" lon="5.50483">
        <ele>200.572266</ele>
        <time>2011-04-15T15:04:47Z</time>
      </trkpt>
      <trkpt lat="47.09293" lon="5.50457">
        <ele>199.61084</ele>
        <time>2011-04-15T15:04:51Z</time>
      </trkpt>
      <trkpt lat="47.09283" lon="5.50436">
        <ele>199.130127</ele>
        <time>2011-04-15T15:04:56Z</time>
      </trkpt>
      <trkpt lat="47.09291" lon="5.50408">
        <ele>199.130127</ele>
        <time>2011-04-15T15:05:00Z</time>
      </trkpt>
      <trkpt lat="47.09304" lon="5.50347">
        <ele>200.572266</ele>
        <time>2011-04-15T15:05:08Z</time>
      </trkpt>
      <trkpt lat="47.0933" lon="5.50309">
        <ele>202.975464</ele>
        <time>2011-04-15T15:05:17Z</time>
      </trkpt>
      <trkpt lat="47.09333" lon="5.50309">
        <ele>203.456177</ele>
        <time>2011-04-15T15:05:18Z</time>
      </trkpt>
      <trkpt lat="47.09344" lon="5.50309">
        <ele>202.494873</ele>
        <time>2011-04-15T15:05:22Z</time>
      </trkpt>
      <trkpt lat="47.09351" lon="5.5028">
        <ele>201.533569</ele>
        <time>2011-04-15T15:05:27Z</time>
      </trkpt>
      <trkpt lat="47.09353" lon="5.502">
        <ele>200.572266</ele>
        <time>2011-04-15T15:05:37Z</time>
      </trkpt>
      <trkpt lat="47.0935" lon="5.50173">
        <ele>200.091675</ele>
        <time>2011-04-15T15:05:41Z</time>
      </trkpt>
      <trkpt lat="47.09358" lon="5.50078">
        <ele>200.572266</ele>
        <time>2011-04-15T15:05:56Z</time>
      </trkpt>
      <trkpt lat="47.09359" lon="5.50074">
        <ele>200.572266</ele>
        <time>2011-04-15T15:05:57Z</time>
      </trkpt>
      <trkpt lat="47.0936" lon="5.50053">
        <ele>200.091675</ele>
        <time>2011-04-15T15:06:03Z</time>
      </trkpt>
      <trkpt lat="47.09365" lon="5.50038">
        <ele>199.61084</ele>
        <time>2011-04-15T15:06:09Z</time>
      </trkpt>
      <trkpt lat="47.09366" lon="5.5003">
        <ele>200.572266</ele>
        <time>2011-04-15T15:06:29Z</time>
      </trkpt>
      <trkpt lat="47.09367" lon="5.50028">
        <ele>199.61084</ele>
        <time>2011-04-15T15:07:28Z</time>
      </trkpt>
      <trkpt lat="47.09367" lon="5.50027">
        <ele>198.649536</ele>
        <time>2011-04-15T15:07:29Z</time>
      </trkpt>
      <trkpt lat="47.09369" lon="5.50021">
        <ele>199.61084</ele>
        <time>2011-04-15T15:07:32Z</time>
      </trkpt>
      <trkpt lat="47.09369" lon="5.49954">
        <ele>200.091675</ele>
        <time>2011-04-15T15:07:47Z</time>
      </trkpt>
      <trkpt lat="47.09354" lon="5.49913">
        <ele>202.975464</ele>
        <time>2011-04-15T15:07:57Z</time>
      </trkpt>
      <trkpt lat="47.09353" lon="5.4991">
        <ele>202.494873</ele>
        <time>2011-04-15T15:08:10Z</time>
      </trkpt>
      <trkpt lat="47.09353" lon="5.4991">
        <ele>202.014282</ele>
        <time>2011-04-15T15:09:03Z</time>
      </trkpt>
      <trkpt lat="47.09347" lon="5.4991">
        <ele>202.014282</ele>
        <time>2011-04-15T15:09:07Z</time>
      </trkpt>
      <trkpt lat="47.09333" lon="5.49924">
        <ele>203.456177</ele>
        <time>2011-04-15T15:09:13Z</time>
      </trkpt>
      <trkpt lat="47.09324" lon="5.49934">
        <ele>202.975464</ele>
        <time>2011-04-15T15:09:16Z</time>
      </trkpt>
      <trkpt lat="47.09305" lon="5.4993">
        <ele>201.052856</ele>
        <time>2011-04-15T15:09:20Z</time>
      </trkpt>
      <trkpt lat="47.093" lon="5.49925">
        <ele>200.572266</ele>
        <time>2011-04-15T15:09:21Z</time>
      </trkpt>
      <trkpt lat="47.09276" lon="5.49898">
        <ele>200.091675</ele>
        <time>2011-04-15T15:09:26Z</time>
      </trkpt>
      <trkpt lat="47.09225" lon="5.4985">
        <ele>200.091675</ele>
        <time>2011-04-15T15:09:36Z</time>
      </trkpt>
      <trkpt lat="47.0914" lon="5.4978">
        <ele>200.572266</ele>
        <time>2011-04-15T15:09:51Z</time>
      </trkpt>
      <trkpt lat="47.09136" lon="5.49777">
        <ele>200.091675</ele>
        <time>2011-04-15T15:09:52Z</time>
      </trkpt>
      <trkpt lat="47.09124" lon="5.49766">
        <ele>200.091675</ele>
        <time>2011-04-15T15:09:55Z</time>
      </trkpt>
      <trkpt lat="47.09109" lon="5.49752">
        <ele>200.091675</ele>
        <time>2011-04-15T15:09:59Z</time>
      </trkpt>
      <trkpt lat="47.09088" lon="5.49736">
        <ele>199.61084</ele>
        <time>2011-04-15T15:10:03Z</time>
      </trkpt>
      <trkpt lat="47.09078" lon="5.49722">
        <ele>199.61084</ele>
        <time>2011-04-15T15:10:06Z</time>
      </trkpt>
      <trkpt lat="47.09055" lon="5.497">
        <ele>199.61084</ele>
        <time>2011-04-15T15:10:15Z</time>
      </trkpt>
      <trkpt lat="47.09025" lon="5.49664">
        <ele>201.533569</ele>
        <time>2011-04-15T15:10:22Z</time>
      </trkpt>
      <trkpt lat="47.08939" lon="5.4958">
        <ele>199.61084</ele>
        <time>2011-04-15T15:10:34Z</time>
      </trkpt>
      <trkpt lat="47.0891" lon="5.49536">
        <ele>199.61084</ele>
        <time>2011-04-15T15:10:40Z</time>
      </trkpt>
      <trkpt lat="47.08891" lon="5.49461">
        <ele>201.052856</ele>
        <time>2011-04-15T15:10:52Z</time>
      </trkpt>
      <trkpt lat="47.08888" lon="5.49446">
        <ele>202.014282</ele>
        <time>2011-04-15T15:11:02Z</time>
      </trkpt>
      <trkpt lat="47.0888" lon="5.49434">
        <ele>202.494873</ele>
        <time>2011-04-15T15:11:06Z</time>
      </trkpt>
      <trkpt lat="47.08865" lon="5.49439">
        <ele>202.975464</ele>
        <time>2011-04-15T15:11:10Z</time>
      </trkpt>
      <trkpt lat="47.08746" lon="5.4952">
        <ele>202.975464</ele>
        <time>2011-04-15T15:11:32Z</time>
      </trkpt>
      <trkpt lat="47.08708" lon="5.49507">
        <ele>202.014282</ele>
        <time>2011-04-15T15:11:39Z</time>
      </trkpt>
      <trkpt lat="47.08699" lon="5.49437">
        <ele>200.091675</ele>
        <time>2011-04-15T15:11:46Z</time>
      </trkpt>
      <trkpt lat="47.08657" lon="5.49288">
        <ele>199.130127</ele>
        <time>2011-04-15T15:12:01Z</time>
      </trkpt>
      <trkpt lat="47.08636" lon="5.49219">
        <ele>199.130127</ele>
        <time>2011-04-15T15:12:08Z</time>
      </trkpt>
      <trkpt lat="47.08567" lon="5.49126">
        <ele>198.649536</ele>
        <time>2011-04-15T15:12:21Z</time>
      </trkpt>
      <trkpt lat="47.08491" lon="5.49022">
        <ele>198.649536</ele>
        <time>2011-04-15T15:12:35Z</time>
      </trkpt>
      <trkpt lat="47.08403" lon="5.48876">
        <ele>198.649536</ele>
        <time>2011-04-15T15:12:53Z</time>
      </trkpt>
      <trkpt lat="47.08393" lon="5.48851">
        <ele>198.649536</ele>
        <time>2011-04-15T15:12:56Z</time>
      </trkpt>
      <trkpt lat="47.08365" lon="5.48816">
        <ele>198.649536</ele>
        <time>2011-04-15T15:13:01Z</time>
      </trkpt>
      <trkpt lat="47.08236" lon="5.48618">
        <ele>197.688232</ele>
        <time>2011-04-15T15:13:24Z</time>
      </trkpt>
      <trkpt lat="47.0812" lon="5.48512">
        <ele>199.130127</ele>
        <time>2011-04-15T15:13:40Z</time>
      </trkpt>
      <trkpt lat="47.0809" lon="5.48487">
        <ele>198.649536</ele>
        <time>2011-04-15T15:13:44Z</time>
      </trkpt>
      <trkpt lat="47.08046" lon="5.48492">
        <ele>198.649536</ele>
        <time>2011-04-15T15:13:50Z</time>
      </trkpt>
      <trkpt lat="47.08042" lon="5.48503">
        <ele>199.61084</ele>
        <time>2011-04-15T15:13:51Z</time>
      </trkpt>
      <trkpt lat="47.07951" lon="5.4878">
        <ele>199.130127</ele>
        <time>2011-04-15T15:14:18Z</time>
      </trkpt>
      <trkpt lat="47.07903" lon="5.48921">
        <ele>199.130127</ele>
        <time>2011-04-15T15:14:33Z</time>
      </trkpt>
      <trkpt lat="47.07846" lon="5.48959">
        <ele>198.649536</ele>
        <time>2011-04-15T15:14:42Z</time>
      </trkpt>
      <trkpt lat="47.07808" lon="5.48923">
        <ele>198.649536</ele>
        <time>2011-04-15T15:14:48Z</time>
      </trkpt>
      <trkpt lat="47.07804" lon="5.48912">
        <ele>198.649536</ele>
        <time>2011-04-15T15:14:49Z</time>
      </trkpt>
      <trkpt lat="47.07782" lon="5.48882">
        <ele>201.052856</ele>
        <time>2011-04-15T15:14:53Z</time>
      </trkpt>
      <trkpt lat="47.07749" lon="5.48902">
        <ele>201.052856</ele>
        <time>2011-04-15T15:14:58Z</time>
      </trkpt>
      <trkpt lat="47.07746" lon="5.48912">
        <ele>201.052856</ele>
        <time>2011-04-15T15:14:59Z</time>
      </trkpt>
      <trkpt lat="47.0774" lon="5.48934">
        <ele>201.533569</ele>
        <time>2011-04-15T15:15:01Z</time>
      </trkpt>
      <trkpt lat="47.0767" lon="5.49012">
        <ele>201.052856</ele>
        <time>2011-04-15T15:15:13Z</time>
      </trkpt>
      <trkpt lat="47.07581" lon="5.4915">
        <ele>202.014282</ele>
        <time>2011-04-15T15:15:32Z</time>
      </trkpt>
      <trkpt lat="47.07477" lon="5.49356">
        <ele>204.898071</ele>
        <time>2011-04-15T15:15:58Z</time>
      </trkpt>
      <trkpt lat="47.07455" lon="5.49398">
        <ele>205.859497</ele>
        <time>2011-04-15T15:16:04Z</time>
      </trkpt>
      <trkpt lat="47.07432" lon="5.49413">
        <ele>206.820679</ele>
        <time>2011-04-15T15:16:09Z</time>
      </trkpt>
      <trkpt lat="47.07421" lon="5.49427">
        <ele>208.262817</ele>
        <time>2011-04-15T15:16:12Z</time>
      </trkpt>
      <trkpt lat="47.07431" lon="5.49465">
        <ele>208.262817</ele>
        <time>2011-04-15T15:16:18Z</time>
      </trkpt>
      <trkpt lat="47.07437" lon="5.49492">
        <ele>208.743408</ele>
        <time>2011-04-15T15:16:23Z</time>
      </trkpt>
      <trkpt lat="47.07429" lon="5.49512">
        <ele>209.224121</ele>
        <time>2011-04-15T15:16:31Z</time>
      </trkpt>
      <trkpt lat="47.07431" lon="5.49514">
        <ele>209.224121</ele>
        <time>2011-04-15T15:16:44Z</time>
      </trkpt>
      <trkpt lat="47.07431" lon="5.49515">
        <ele>208.743408</ele>
        <time>2011-04-15T15:17:51Z</time>
      </trkpt>
      <trkpt lat="47.07431" lon="5.49515">
        <ele>209.224121</ele>
        <time>2011-04-15T15:19:17Z</time>
      </trkpt>
      <trkpt lat="47.07431" lon="5.4952">
        <ele>209.704834</ele>
        <time>2011-04-15T15:19:29Z</time>
      </trkpt>
      <trkpt lat="47.07427" lon="5.49518">
        <ele>209.224121</ele>
        <time>2011-04-15T15:19:48Z</time>
      </trkpt>
      <trkpt lat="47.07427" lon="5.49518">
        <ele>210.185425</ele>
        <time>2011-04-15T15:20:15Z</time>
      </trkpt>
      <trkpt lat="47.0743" lon="5.49518">
        <ele>209.224121</ele>
        <time>2011-04-15T15:20:27Z</time>
      </trkpt>
      <trkpt lat="47.07428" lon="5.49519">
        <ele>209.224121</ele>
        <time>2011-04-15T15:21:07Z</time>
      </trkpt>
      <trkpt lat="47.07428" lon="5.49517">
        <ele>209.224121</ele>
        <time>2011-04-15T15:21:21Z</time>
      </trkpt>
      <trkpt lat="47.07429" lon="5.49517">
        <ele>210.666016</ele>
        <time>2011-04-15T15:21:41Z</time>
      </trkpt>
    </trkseg>
  </trk>
</gpx>